Observation data for Sierra Blanca on 08/01/2020      Previous  Date  Next       Current Mesonet Observations  Soil Data  Daily Summary Page  Observations in Plain Language
KSB1 010500Z 09005KT 26/15 A3022 RMK A01 T02580154  RH  053%=      5-min Rain = 0
KSB1 010501Z 09004KT 26/16 A3022 RMK A01 T02580155  RH  053%=      5-min Rain = 0
KSB1 010502Z 08004KT 26/16 A3022 RMK A01 T02580155  RH  053%=      5-min Rain = 0
KSB1 010503Z 09004KT 26/16 A3022 RMK A01 T02580155  RH  053%=      5-min Rain = 0
KSB1 010504Z 08003KT 26/16 A3022 RMK A01 T02580155  RH  053%=      5-min Rain = 0
KSB1 010505Z 07003KT 26/16 A3023 RMK A01 T02570155  RH  053%=      5-min Rain = 0
KSB1 010506Z 07003KT 26/16 A3023 RMK A01 T02570155  RH  053%=      5-min Rain = 0
KSB1 010507Z 07003KT 26/16 A3023 RMK A01 T02560155  RH  053%=      5-min Rain = 0
KSB1 010508Z 07003KT 26/16 A3023 RMK A01 T02560155  RH  054%=      5-min Rain = 0
KSB1 010509Z 06004KT 26/16 A3023 RMK A01 T02550155  RH  054%=      5-min Rain = 0
KSB1 010510Z 07004KT 26/16 A3023 RMK A01 T02550155  RH  054%=      5-min Rain = 0
KSB1 010511Z 06004KT 26/16 A3023 RMK A01 T02550155  RH  054%=      5-min Rain = 0
KSB1 010512Z 06005KT 26/16 A3023 RMK A01 T02550155  RH  054%=      5-min Rain = 0
KSB1 010513Z 06004KT 26/15 A3023 RMK A01 T02550154  RH  054%=      5-min Rain = 0
KSB1 010514Z 06004KT 26/16 A3023 RMK A01 T02550155  RH  054%=      5-min Rain = 0
KSB1 010515Z 05004KT 25/16 A3023 RMK A01 T02540155  RH  054%=      5-min Rain = 0
KSB1 010516Z 06004KT 25/16 A3023 RMK A01 T02540155  RH  054%=      5-min Rain = 0
KSB1 010517Z 06005KT 25/16 A3023 RMK A01 T02540155  RH  054%=      5-min Rain = 0
KSB1 010518Z 06005KT 25/15 A3023 RMK A01 T02540154  RH  054%=      5-min Rain = 0
KSB1 010519Z 05005KT 25/15 A3024 RMK A01 T02540154  RH  054%=      5-min Rain = 0
KSB1 010520Z 05005KT 25/15 A3024 RMK A01 T02540154  RH  054%=      5-min Rain = 0
KSB1 010521Z 06005KT 25/16 A3024 RMK A01 T02540155  RH  054%=      5-min Rain = 0
KSB1 010522Z 05006KT 25/16 A3024 RMK A01 T02540155  RH  054%=      5-min Rain = 0
KSB1 010523Z 07006KT 25/16 A3024 RMK A01 T02540155  RH  054%=      5-min Rain = 0
KSB1 010524Z 06006KT 25/15 A3024 RMK A01 T02540154  RH  054%=      5-min Rain = 0
KSB1 010525Z 06006KT 25/15 A3023 RMK A01 T02540154  RH  054%=      5-min Rain = 0
KSB1 010526Z 07006KT 26/16 A3023 RMK A01 T02550155  RH  054%=      5-min Rain = 0
KSB1 010527Z 06005KT 25/15 A3023 RMK A01 T02540154  RH  054%=      5-min Rain = 0
KSB1 010528Z 06005KT 25/16 A3023 RMK A01 T02540155  RH  054%=      5-min Rain = 0
KSB1 010529Z 06006KT 25/16 A3023 RMK A01 T02540155  RH  054%=      5-min Rain = 0
KSB1 010530Z 06005KT 25/16 A3024 RMK A01 T02530155  RH  054%=      5-min Rain = 0
KSB1 010531Z 07006KT 25/15 A3024 RMK A01 T02530154  RH  054%=      5-min Rain = 0
KSB1 010532Z 06005KT 25/15 A3024 RMK A01 T02530154  RH  054%=      5-min Rain = 0
KSB1 010533Z 06006KT 25/15 A3024 RMK A01 T02540154  RH  054%=      5-min Rain = 0
KSB1 010534Z 06006KT 25/15 A3024 RMK A01 T02540154  RH  054%=      5-min Rain = 0
KSB1 010535Z 07005KT 26/15 A3024 RMK A01 T02550154  RH  054%=      5-min Rain = 0
KSB1 010536Z 06005KT 26/15 A3024 RMK A01 T02550154  RH  054%=      5-min Rain = 0
KSB1 010537Z 06006KT 26/15 A3024 RMK A01 T02550154  RH  054%=      5-min Rain = 0
KSB1 010538Z 06004KT 26/16 A3024 RMK A01 T02550155  RH  054%=      5-min Rain = 0
KSB1 010539Z 06005KT 26/16 A3024 RMK A01 T02550155  RH  054%=      5-min Rain = 0
KSB1 010540Z 06005KT 25/16 A3024 RMK A01 T02540155  RH  054%=      5-min Rain = 0
KSB1 010541Z 07006KT 25/15 A3024 RMK A01 T02540154  RH  054%=      5-min Rain = 0
KSB1 010542Z 07005KT 26/15 A3024 RMK A01 T02550154  RH  054%=      5-min Rain = 0
KSB1 010543Z 07006KT 26/15 A3024 RMK A01 T02550154  RH  054%=      5-min Rain = 0
KSB1 010544Z 06004KT 26/15 A3024 RMK A01 T02550154  RH  054%=      5-min Rain = 0
KSB1 010545Z 07005KT 26/15 A3024 RMK A01 T02550154  RH  054%=      5-min Rain = 0
KSB1 010546Z 08004KT 26/16 A3024 RMK A01 T02550155  RH  054%=      5-min Rain = 0
KSB1 010547Z 08005KT 25/15 A3024 RMK A01 T02540154  RH  054%=      5-min Rain = 0
KSB1 010548Z 09005KT 26/15 A3024 RMK A01 T02550154  RH  054%=      5-min Rain = 0
KSB1 010549Z 09005KT 25/15 A3024 RMK A01 T02540154  RH  054%=      5-min Rain = 0
KSB1 010550Z 10005KT 26/15 A3024 RMK A01 T02550154  RH  054%=      5-min Rain = 0
KSB1 010551Z 10004KT 26/15 A3024 RMK A01 T02550154  RH  054%=      5-min Rain = 0
KSB1 010552Z 11005KT 25/15 A3024 RMK A01 T02540154  RH  054%=      5-min Rain = 0
KSB1 010553Z 14003KT 25/15 A3024 RMK A01 T02530154  RH  054%=      5-min Rain = 0
KSB1 010554Z 13004KT 25/15 A3024 RMK A01 T02520154  RH  054%=      5-min Rain = 0
KSB1 010555Z 12004KT 25/15 A3024 RMK A01 T02510154  RH  055%=      5-min Rain = 0
KSB1 010556Z 13004KT 25/15 A3024 RMK A01 T02500154  RH  055%=      5-min Rain = 0
KSB1 010557Z 13004KT 25/15 A3023 RMK A01 T02490154  RH  055%=      5-min Rain = 0
KSB1 010558Z 13004KT 25/15 A3023 RMK A01 T02490154  RH  055%=      5-min Rain = 0
KSB1 010559Z 13004KT 25/15 A3023 RMK A01 T02490154  RH  056%=      5-min Rain = 0
KSB1 010600Z 13004KT 25/15 A3023 RMK A01 T02490154  RH  056%=      5-min Rain = 0
KSB1 010601Z 12004KT 25/15 A3023 RMK A01 T02480154  RH  056%=      5-min Rain = 0
KSB1 010602Z 12004KT 25/15 A3023 RMK A01 T02480154  RH  056%=      5-min Rain = 0
KSB1 010603Z 11004KT 25/15 A3023 RMK A01 T02480153  RH  055%=      5-min Rain = 0
KSB1 010604Z 11004KT 25/15 A3023 RMK A01 T02490153  RH  055%=      5-min Rain = 0
KSB1 010605Z 11004KT 25/15 A3023 RMK A01 T02500153  RH  055%=      5-min Rain = 0
KSB1 010606Z 11003KT 25/15 A3023 RMK A01 T02500153  RH  055%=      5-min Rain = 0
KSB1 010607Z 10003KT 25/15 A3023 RMK A01 T02510154  RH  055%=      5-min Rain = 0
KSB1 010608Z 10003KT 25/15 A3023 RMK A01 T02510154  RH  055%=      5-min Rain = 0
KSB1 010609Z 10002KT 25/15 A3023 RMK A01 T02510153  RH  055%=      5-min Rain = 0
KSB1 010610Z 10003KT 25/15 A3023 RMK A01 T02520154  RH  054%=      5-min Rain = 0
KSB1 010611Z 10002KT 25/15 A3023 RMK A01 T02520153  RH  054%=      5-min Rain = 0
KSB1 010612Z 10002KT 25/15 A3023 RMK A01 T02520153  RH  054%=      5-min Rain = 0
KSB1 010613Z 09002KT 25/15 A3023 RMK A01 T02510153  RH  054%=      5-min Rain = 0
KSB1 010614Z 10001KT 25/15 A3023 RMK A01 T02510153  RH  054%=      5-min Rain = 0
KSB1 010615Z 11001KT 25/15 A3023 RMK A01 T02510153  RH  054%=      5-min Rain = 0
KSB1 010616Z 13001KT 25/15 A3023 RMK A01 T02510153  RH  054%=      5-min Rain = 0
KSB1 010617Z 13001KT 25/15 A3023 RMK A01 T02510154  RH  055%=      5-min Rain = 0
KSB1 010618Z 15001KT 25/15 A3023 RMK A01 T02510153  RH  055%=      5-min Rain = 0
KSB1 010619Z 16001KT 25/15 A3023 RMK A01 T02510154  RH  055%=      5-min Rain = 0
KSB1 010620Z 16002KT 25/15 A3023 RMK A01 T02500153  RH  055%=      5-min Rain = 0
KSB1 010621Z 16003KT 25/15 A3023 RMK A01 T02490153  RH  055%=      5-min Rain = 0
KSB1 010622Z 16003KT 25/15 A3023 RMK A01 T02480153  RH  055%=      5-min Rain = 0
KSB1 010623Z 15002KT 25/15 A3023 RMK A01 T02470153  RH  056%=      5-min Rain = 0
KSB1 010624Z 14003KT 25/15 A3023 RMK A01 T02460153  RH  056%=      5-min Rain = 0
KSB1 010625Z 15003KT 25/15 A3023 RMK A01 T02460153  RH  056%=      5-min Rain = 0
KSB1 010626Z 13003KT 25/15 A3023 RMK A01 T02460152  RH  056%=      5-min Rain = 0
KSB1 010627Z 13003KT 25/15 A3023 RMK A01 T02460152  RH  056%=      5-min Rain = 0
KSB1 010628Z 13003KT 25/15 A3023 RMK A01 T02460152  RH  056%=      5-min Rain = 0
KSB1 010629Z 13002KT 25/15 A3023 RMK A01 T02470152  RH  055%=      5-min Rain = 0
KSB1 010630Z 14003KT 25/15 A3023 RMK A01 T02480152  RH  055%=      5-min Rain = 0
KSB1 010631Z 14003KT 25/15 A3023 RMK A01 T02480152  RH  055%=      5-min Rain = 0
KSB1 010632Z 14002KT 25/15 A3023 RMK A01 T02480153  RH  055%=      5-min Rain = 0
KSB1 010633Z 14002KT 25/15 A3023 RMK A01 T02480152  RH  055%=      5-min Rain = 0
KSB1 010634Z 14002KT 25/15 A3023 RMK A01 T02480152  RH  055%=      5-min Rain = 0
KSB1 010635Z 15002KT 25/15 A3023 RMK A01 T02480153  RH  055%=      5-min Rain = 0
KSB1 010636Z 16002KT 25/15 A3023 RMK A01 T02480152  RH  055%=      5-min Rain = 0
KSB1 010637Z 16003KT 25/15 A3022 RMK A01 T02470152  RH  055%=      5-min Rain = 0
KSB1 010638Z 17003KT 25/15 A3022 RMK A01 T02460152  RH  056%=      5-min Rain = 0
KSB1 010639Z 17003KT 25/15 A3022 RMK A01 T02460152  RH  056%=      5-min Rain = 0
KSB1 010640Z 17003KT 25/15 A3023 RMK A01 T02450152  RH  056%=      5-min Rain = 0
KSB1 010641Z 18003KT 24/15 A3023 RMK A01 T02440152  RH  056%=      5-min Rain = 0
KSB1 010642Z 20003KT 24/15 A3023 RMK A01 T02430152  RH  057%=      5-min Rain = 0
KSB1 010643Z 21003KT 24/15 A3023 RMK A01 T02420152  RH  057%=      5-min Rain = 0
KSB1 010644Z 22003KT 24/15 A3023 RMK A01 T02400152  RH  058%=      5-min Rain = 0
KSB1 010645Z 24003KT 24/15 A3023 RMK A01 T02390152  RH  058%=      5-min Rain = 0
KSB1 010646Z 23002KT 24/15 A3023 RMK A01 T02380153  RH  059%=      5-min Rain = 0
KSB1 010647Z 24002KT 24/15 A3023 RMK A01 T02360152  RH  059%=      5-min Rain = 0
KSB1 010648Z 24002KT 24/15 A3023 RMK A01 T02360153  RH  059%=      5-min Rain = 0
KSB1 010649Z 24002KT 24/15 A3023 RMK A01 T02360153  RH  060%=      5-min Rain = 0
KSB1 010650Z 24002KT 24/15 A3023 RMK A01 T02360153  RH  060%=      5-min Rain = 0
KSB1 010651Z 23002KT 24/15 A3023 RMK A01 T02370153  RH  059%=      5-min Rain = 0
KSB1 010652Z 23002KT 24/15 A3023 RMK A01 T02370153  RH  059%=      5-min Rain = 0
KSB1 010653Z 22002KT 24/15 A3023 RMK A01 T02380152  RH  059%=      5-min Rain = 0
KSB1 010654Z 21002KT 24/15 A3023 RMK A01 T02390153  RH  058%=      5-min Rain = 0
KSB1 010655Z 21002KT 24/15 A3023 RMK A01 T02400153  RH  058%=      5-min Rain = 0
KSB1 010656Z 21002KT 24/15 A3023 RMK A01 T02400153  RH  058%=      5-min Rain = 0
KSB1 010657Z 20002KT 24/15 A3023 RMK A01 T02410153  RH  058%=      5-min Rain = 0
KSB1 010658Z 20002KT 24/15 A3023 RMK A01 T02410152  RH  058%=      5-min Rain = 0
KSB1 010659Z 20002KT 24/15 A3023 RMK A01 T02420152  RH  057%=      5-min Rain = 0
KSB1 010700Z 18002KT 24/15 A3023 RMK A01 T02420152  RH  057%=      5-min Rain = 0
KSB1 010701Z 18002KT 24/15 A3023 RMK A01 T02420152  RH  057%=      5-min Rain = 0
KSB1 010702Z 18001KT 24/15 A3023 RMK A01 T02430152  RH  057%=      5-min Rain = 0
KSB1 010703Z 17001KT 24/15 A3023 RMK A01 T02430152  RH  057%=      5-min Rain = 0
KSB1 010704Z 17002KT 24/15 A3022 RMK A01 T02430152  RH  057%=      5-min Rain = 0
KSB1 010705Z 16002KT 24/15 A3022 RMK A01 T02440152  RH  056%=      5-min Rain = 0
KSB1 010706Z 17002KT 25/15 A3022 RMK A01 T02450151  RH  056%=      5-min Rain = 0
KSB1 010707Z 17002KT 25/15 A3022 RMK A01 T02450152  RH  056%=      5-min Rain = 0
KSB1 010708Z 19002KT 25/15 A3022 RMK A01 T02460152  RH  056%=      5-min Rain = 0
KSB1 010709Z 18002KT 25/15 A3022 RMK A01 T02460152  RH  056%=      5-min Rain = 0
KSB1 010710Z 17003KT 25/15 A3022 RMK A01 T02450152  RH  056%=      5-min Rain = 0
KSB1 010711Z 19002KT 25/15 A3022 RMK A01 T02450152  RH  056%=      5-min Rain = 0
KSB1 010712Z 20003KT 24/15 A3022 RMK A01 T02440152  RH  056%=      5-min Rain = 0
KSB1 010713Z 20002KT 24/15 A3022 RMK A01 T02440152  RH  057%=      5-min Rain = 0
KSB1 010714Z 20003KT 24/15 A3022 RMK A01 T02430152  RH  057%=      5-min Rain = 0
KSB1 010715Z 20002KT 24/15 A3022 RMK A01 T02420152  RH  057%=      5-min Rain = 0
KSB1 010716Z 20002KT 24/15 A3022 RMK A01 T02420152  RH  057%=      5-min Rain = 0
KSB1 010717Z 20002KT 24/15 A3022 RMK A01 T02410152  RH  058%=      5-min Rain = 0
KSB1 010718Z 20002KT 24/15 A3022 RMK A01 T02400152  RH  058%=      5-min Rain = 0
KSB1 010719Z 20002KT 24/15 A3022 RMK A01 T02400152  RH  058%=      5-min Rain = 0
KSB1 010720Z 20002KT 24/15 A3022 RMK A01 T02400152  RH  058%=      5-min Rain = 0
KSB1 010721Z 19002KT 24/15 A3022 RMK A01 T02400152  RH  058%=      5-min Rain = 0
KSB1 010722Z 19002KT 24/15 A3022 RMK A01 T02400151  RH  058%=      5-min Rain = 0
KSB1 010723Z 20002KT 24/15 A3022 RMK A01 T02400151  RH  058%=      5-min Rain = 0
KSB1 010724Z 19002KT 24/15 A3022 RMK A01 T02400152  RH  058%=      5-min Rain = 0
KSB1 010725Z 18002KT 24/15 A3022 RMK A01 T02410151  RH  057%=      5-min Rain = 0
KSB1 010726Z 17002KT 24/15 A3022 RMK A01 T02410151  RH  057%=      5-min Rain = 0
KSB1 010727Z 16003KT 24/15 A3022 RMK A01 T02410151  RH  057%=      5-min Rain = 0
KSB1 010728Z 17002KT 24/15 A3022 RMK A01 T02420151  RH  057%=      5-min Rain = 0
KSB1 010729Z 15003KT 24/15 A3022 RMK A01 T02420151  RH  057%=      5-min Rain = 0
KSB1 010730Z 15002KT 24/15 A3022 RMK A01 T02420151  RH  057%=      5-min Rain = 0
KSB1 010731Z 14001KT 24/15 A3022 RMK A01 T02420151  RH  057%=      5-min Rain = 0
KSB1 010732Z 13002KT 24/15 A3022 RMK A01 T02420150  RH  056%=      5-min Rain = 0
KSB1 010733Z 13003KT 24/15 A3022 RMK A01 T02420150  RH  056%=      5-min Rain = 0
KSB1 010734Z 13002KT 24/15 A3022 RMK A01 T02420150  RH  056%=      5-min Rain = 0
KSB1 010735Z 12003KT 24/15 A3022 RMK A01 T02430150  RH  056%=      5-min Rain = 0
KSB1 010736Z 12004KT 24/15 A3022 RMK A01 T02430150  RH  056%=      5-min Rain = 0
KSB1 010737Z 12003KT 24/15 A3022 RMK A01 T02440151  RH  056%=      5-min Rain = 0
KSB1 010738Z 11003KT 24/15 A3022 RMK A01 T02440151  RH  056%=      5-min Rain = 0
KSB1 010739Z 11003KT 25/15 A3022 RMK A01 T02450151  RH  056%=      5-min Rain = 0
KSB1 010740Z 11003KT 25/15 A3022 RMK A01 T02450151  RH  056%=      5-min Rain = 0
KSB1 010741Z 11003KT 25/15 A3022 RMK A01 T02450151  RH  056%=      5-min Rain = 0
KSB1 010742Z 11003KT 25/15 A3022 RMK A01 T02450150  RH  056%=      5-min Rain = 0
KSB1 010743Z 10003KT 25/15 A3022 RMK A01 T02450150  RH  056%=      5-min Rain = 0
KSB1 010744Z 10004KT 24/15 A3022 RMK A01 T02440150  RH  056%=      5-min Rain = 0
KSB1 010745Z 10003KT 25/15 A3022 RMK A01 T02450151  RH  056%=      5-min Rain = 0
KSB1 010746Z 10004KT 25/15 A3022 RMK A01 T02450151  RH  056%=      5-min Rain = 0
KSB1 010747Z 10003KT 24/15 A3022 RMK A01 T02440150  RH  056%=      5-min Rain = 0
KSB1 010748Z 10004KT 24/15 A3022 RMK A01 T02440151  RH  056%=      5-min Rain = 0
KSB1 010749Z 10004KT 24/15 A3022 RMK A01 T02440151  RH  056%=      5-min Rain = 0
KSB1 010750Z 09004KT 24/15 A3022 RMK A01 T02440151  RH  056%=      5-min Rain = 0
KSB1 010751Z 09004KT 24/15 A3022 RMK A01 T02430150  RH  056%=      5-min Rain = 0
KSB1 010752Z 09004KT 24/15 A3022 RMK A01 T02430151  RH  056%=      5-min Rain = 0
KSB1 010753Z 09004KT 24/15 A3022 RMK A01 T02420150  RH  056%=      5-min Rain = 0
KSB1 010754Z 09004KT 24/15 A3022 RMK A01 T02420150  RH  057%=      5-min Rain = 0
KSB1 010755Z 08004KT 24/15 A3022 RMK A01 T02410150  RH  057%=      5-min Rain = 0
KSB1 010756Z 07003KT 24/15 A3022 RMK A01 T02410151  RH  057%=      5-min Rain = 0
KSB1 010757Z 07003KT 24/15 A3022 RMK A01 T02410150  RH  057%=      5-min Rain = 0
KSB1 010758Z 07004KT 24/15 A3022 RMK A01 T02410151  RH  057%=      5-min Rain = 0
KSB1 010759Z 06004KT 24/15 A3022 RMK A01 T02400151  RH  057%=      5-min Rain = 0
KSB1 010800Z 05003KT 24/15 A3022 RMK A01 T02400151  RH  058%=      5-min Rain = 0
KSB1 010801Z 05003KT 24/15 A3022 RMK A01 T02390151  RH  058%=      5-min Rain = 0
KSB1 010802Z 06003KT 24/15 A3022 RMK A01 T02390151  RH  058%=      5-min Rain = 0
KSB1 010803Z 05003KT 24/15 A3022 RMK A01 T02390151  RH  058%=      5-min Rain = 0
KSB1 010804Z 04003KT 24/15 A3022 RMK A01 T02390151  RH  058%=      5-min Rain = 0
KSB1 010805Z 04003KT 24/15 A3022 RMK A01 T02390151  RH  058%=      5-min Rain = 0
KSB1 010806Z 04003KT 24/15 A3022 RMK A01 T02390151  RH  058%=      5-min Rain = 0
KSB1 010807Z 04003KT 24/15 A3022 RMK A01 T02390151  RH  058%=      5-min Rain = 0
KSB1 010808Z 04003KT 24/15 A3022 RMK A01 T02390151  RH  058%=      5-min Rain = 0
KSB1 010809Z 03003KT 24/15 A3022 RMK A01 T02390151  RH  058%=      5-min Rain = 0
KSB1 010810Z 03003KT 24/15 A3022 RMK A01 T02390151  RH  058%=      5-min Rain = 0
KSB1 010811Z 02003KT 24/15 A3022 RMK A01 T02390151  RH  058%=      5-min Rain = 0
KSB1 010812Z 02003KT 24/15 A3022 RMK A01 T02390151  RH  058%=      5-min Rain = 0
KSB1 010813Z 01004KT 24/15 A3022 RMK A01 T02390151  RH  058%=      5-min Rain = 0
KSB1 010814Z 01003KT 24/15 A3022 RMK A01 T02390151  RH  058%=      5-min Rain = 0
KSB1 010815Z 00004KT 24/15 A3022 RMK A01 T02400151  RH  058%=      5-min Rain = 0
KSB1 010816Z 00004KT 24/15 A3022 RMK A01 T02390151  RH  058%=      5-min Rain = 0
KSB1 010817Z 36004KT 24/15 A3022 RMK A01 T02400151  RH  058%=      5-min Rain = 0
KSB1 010818Z 36004KT 24/15 A3022 RMK A01 T02400151  RH  057%=      5-min Rain = 0
KSB1 010819Z 36004KT 24/15 A3022 RMK A01 T02400151  RH  057%=      5-min Rain = 0
KSB1 010820Z 00004KT 24/15 A3022 RMK A01 T02400151  RH  057%=      5-min Rain = 0
KSB1 010821Z 01004KT 24/15 A3022 RMK A01 T02410152  RH  058%=      5-min Rain = 0
KSB1 010822Z 01004KT 24/15 A3022 RMK A01 T02400152  RH  058%=      5-min Rain = 0
KSB1 010823Z 01004KT 24/15 A3022 RMK A01 T02410152  RH  058%=      5-min Rain = 0
KSB1 010824Z 01004KT 24/15 A3022 RMK A01 T02410152  RH  057%=      5-min Rain = 0
KSB1 010825Z 01004KT 24/15 A3022 RMK A01 T02400152  RH  058%=      5-min Rain = 0
KSB1 010826Z 01004KT 24/15 A3022 RMK A01 T02400152  RH  058%=      5-min Rain = 0
KSB1 010827Z 01004KT 24/15 A3022 RMK A01 T02400152  RH  058%=      5-min Rain = 0
KSB1 010828Z 00004KT 24/15 A3022 RMK A01 T02400152  RH  058%=      5-min Rain = 0
KSB1 010829Z 01005KT 24/15 A3022 RMK A01 T02400152  RH  058%=      5-min Rain = 0
KSB1 010830Z 01004KT 24/15 A3022 RMK A01 T02400152  RH  058%=      5-min Rain = 0
KSB1 010831Z 01004KT 24/15 A3022 RMK A01 T02400152  RH  058%=      5-min Rain = 0
KSB1 010832Z 01005KT 24/15 A3022 RMK A01 T02400152  RH  058%=      5-min Rain = 0
KSB1 010833Z 01005KT 24/15 A3022 RMK A01 T02390151  RH  058%=      5-min Rain = 0
KSB1 010834Z 01004KT 24/15 A3022 RMK A01 T02390151  RH  058%=      5-min Rain = 0
KSB1 010835Z 02004KT 24/15 A3022 RMK A01 T02400152  RH  058%=      5-min Rain = 0
KSB1 010836Z 02004KT 24/15 A3022 RMK A01 T02400152  RH  058%=      5-min Rain = 0
KSB1 010837Z 02004KT 24/15 A3022 RMK A01 T02390152  RH  058%=      5-min Rain = 0
KSB1 010838Z 02004KT 24/15 A3022 RMK A01 T02390151  RH  058%=      5-min Rain = 0
KSB1 010839Z 02004KT 24/15 A3022 RMK A01 T02390151  RH  058%=      5-min Rain = 0
KSB1 010840Z 02004KT 24/15 A3022 RMK A01 T02390151  RH  058%=      5-min Rain = 0
KSB1 010841Z 02004KT 24/15 A3022 RMK A01 T02390151  RH  058%=      5-min Rain = 0
KSB1 010842Z 03004KT 24/15 A3022 RMK A01 T02390151  RH  058%=      5-min Rain = 0
KSB1 010843Z 03003KT 24/15 A3022 RMK A01 T02390151  RH  057%=      5-min Rain = 0
KSB1 010844Z 03003KT 24/15 A3022 RMK A01 T02400151  RH  057%=      5-min Rain = 0
KSB1 010845Z 03003KT 24/15 A3022 RMK A01 T02400151  RH  057%=      5-min Rain = 0
KSB1 010846Z 05003KT 24/15 A3022 RMK A01 T02400150  RH  057%=      5-min Rain = 0
KSB1 010847Z 04003KT 24/15 A3022 RMK A01 T02410150  RH  057%=      5-min Rain = 0
KSB1 010848Z 04003KT 24/15 A3022 RMK A01 T02420150  RH  057%=      5-min Rain = 0
KSB1 010849Z 04003KT 24/15 A3022 RMK A01 T02420150  RH  056%=      5-min Rain = 0
KSB1 010850Z 04002KT 24/15 A3022 RMK A01 T02420151  RH  056%=      5-min Rain = 0
KSB1 010851Z 04003KT 24/15 A3022 RMK A01 T02420151  RH  057%=      5-min Rain = 0
KSB1 010852Z 04002KT 24/15 A3022 RMK A01 T02420151  RH  057%=      5-min Rain = 0
KSB1 010853Z 04002KT 24/15 A3022 RMK A01 T02420151  RH  057%=      5-min Rain = 0
KSB1 010854Z 04002KT 24/15 A3022 RMK A01 T02420151  RH  057%=      5-min Rain = 0
KSB1 010855Z 04002KT 24/15 A3022 RMK A01 T02410151  RH  057%=      5-min Rain = 0
KSB1 010856Z 04002KT 24/15 A3022 RMK A01 T02410151  RH  057%=      5-min Rain = 0
KSB1 010857Z 03001KT 24/15 A3022 RMK A01 T02410151  RH  057%=      5-min Rain = 0
KSB1 010858Z 03001KT 24/15 A3022 RMK A01 T02410152  RH  057%=      5-min Rain = 0
KSB1 010859Z 04000KT 24/15 A3023 RMK A01 T02410152  RH  057%=      5-min Rain = 0
KSB1 010900Z 00000KT 24/15 A3022 RMK A01 T02410151  RH  057%=      5-min Rain = 0
KSB1 010901Z 00000KT 24/15 A3022 RMK A01 T02400151  RH  057%=      5-min Rain = 0
KSB1 010902Z 00000KT 24/15 A3022 RMK A01 T02410151  RH  057%=      5-min Rain = 0
KSB1 010903Z 17001KT 24/15 A3022 RMK A01 T02410151  RH  057%=      5-min Rain = 0
KSB1 010904Z 17001KT 24/15 A3022 RMK A01 T02400152  RH  058%=      5-min Rain = 0
KSB1 010905Z 19001KT 24/15 A3022 RMK A01 T02360152  RH  059%=      5-min Rain = 0
KSB1 010906Z 20002KT 23/15 A3022 RMK A01 T02330151  RH  060%=      5-min Rain = 0
KSB1 010907Z 20002KT 23/15 A3022 RMK A01 T02310151  RH  061%=      5-min Rain = 0
KSB1 010908Z 20002KT 23/15 A3022 RMK A01 T02290152  RH  062%=      5-min Rain = 0
KSB1 010909Z 21002KT 23/15 A3022 RMK A01 T02270152  RH  062%=      5-min Rain = 0
KSB1 010910Z 21003KT 23/15 A3022 RMK A01 T02250152  RH  063%=      5-min Rain = 0
KSB1 010911Z 21003KT 22/15 A3022 RMK A01 T02240152  RH  064%=      5-min Rain = 0
KSB1 010912Z 21003KT 22/15 A3022 RMK A01 T02230152  RH  064%=      5-min Rain = 0
KSB1 010913Z 21003KT 22/15 A3022 RMK A01 T02230152  RH  064%=      5-min Rain = 0
KSB1 010914Z 20003KT 22/15 A3022 RMK A01 T02220152  RH  064%=      5-min Rain = 0
KSB1 010915Z 19003KT 22/15 A3022 RMK A01 T02220152  RH  064%=      5-min Rain = 0
KSB1 010916Z 19003KT 22/15 A3022 RMK A01 T02220152  RH  064%=      5-min Rain = 0
KSB1 010917Z 19004KT 22/15 A3022 RMK A01 T02220151  RH  064%=      5-min Rain = 0
KSB1 010918Z 19003KT 22/15 A3022 RMK A01 T02220151  RH  064%=      5-min Rain = 0
KSB1 010919Z 19003KT 22/15 A3022 RMK A01 T02220151  RH  064%=      5-min Rain = 0
KSB1 010920Z 19004KT 22/15 A3022 RMK A01 T02230151  RH  064%=      5-min Rain = 0
KSB1 010921Z 19004KT 22/15 A3021 RMK A01 T02230151  RH  064%=      5-min Rain = 0
KSB1 010922Z 18004KT 22/15 A3021 RMK A01 T02230151  RH  064%=      5-min Rain = 0
KSB1 010923Z 18004KT 22/15 A3021 RMK A01 T02230151  RH  064%=      5-min Rain = 0
KSB1 010924Z 18004KT 22/15 A3021 RMK A01 T02230152  RH  064%=      5-min Rain = 0
KSB1 010925Z 18004KT 22/15 A3021 RMK A01 T02230151  RH  064%=      5-min Rain = 0
KSB1 010926Z 17004KT 22/15 A3021 RMK A01 T02230151  RH  064%=      5-min Rain = 0
KSB1 010927Z 17003KT 22/15 A3021 RMK A01 T02230151  RH  064%=      5-min Rain = 0
KSB1 010928Z 18003KT 22/15 A3021 RMK A01 T02230151  RH  064%=      5-min Rain = 0
KSB1 010929Z 18002KT 22/15 A3021 RMK A01 T02240151  RH  063%=      5-min Rain = 0
KSB1 010930Z 19003KT 22/15 A3021 RMK A01 T02240151  RH  063%=      5-min Rain = 0
KSB1 010931Z 19002KT 22/15 A3021 RMK A01 T02240151  RH  063%=      5-min Rain = 0
KSB1 010932Z 19003KT 22/15 A3021 RMK A01 T02240151  RH  063%=      5-min Rain = 0
KSB1 010933Z 20003KT 22/15 A3021 RMK A01 T02230151  RH  063%=      5-min Rain = 0
KSB1 010934Z 22004KT 22/15 A3021 RMK A01 T02230151  RH  064%=      5-min Rain = 0
KSB1 010935Z 22004KT 22/15 A3021 RMK A01 T02220151  RH  064%=      5-min Rain = 0
KSB1 010936Z 21004KT 22/15 A3021 RMK A01 T02210151  RH  064%=      5-min Rain = 0
KSB1 010937Z 21003KT 22/15 A3021 RMK A01 T02200150  RH  064%=      5-min Rain = 0
KSB1 010938Z 21003KT 22/15 A3021 RMK A01 T02200151  RH  065%=      5-min Rain = 0
KSB1 010939Z 20003KT 22/15 A3021 RMK A01 T02190150  RH  065%=      5-min Rain = 0
KSB1 010940Z 20003KT 22/15 A3021 RMK A01 T02200150  RH  065%=      5-min Rain = 0
KSB1 010941Z 20002KT 22/15 A3021 RMK A01 T02200150  RH  065%=      5-min Rain = 0
KSB1 010942Z 18002KT 22/15 A3021 RMK A01 T02190149  RH  064%=      5-min Rain = 0
KSB1 010943Z 16001KT 22/15 A3021 RMK A01 T02200149  RH  064%=      5-min Rain = 0
KSB1 010944Z 13001KT 22/15 A3021 RMK A01 T02210149  RH  064%=      5-min Rain = 0
KSB1 010945Z 12002KT 22/15 A3021 RMK A01 T02220149  RH  063%=      5-min Rain = 0
KSB1 010946Z 11002KT 22/15 A3021 RMK A01 T02230149  RH  063%=      5-min Rain = 0
KSB1 010947Z 11002KT 22/15 A3021 RMK A01 T02240149  RH  062%=      5-min Rain = 0
KSB1 010948Z 12002KT 23/15 A3021 RMK A01 T02250149  RH  062%=      5-min Rain = 0
KSB1 010949Z 14002KT 23/15 A3021 RMK A01 T02260149  RH  062%=      5-min Rain = 0
KSB1 010950Z 16002KT 23/15 A3021 RMK A01 T02270149  RH  062%=      5-min Rain = 0
KSB1 010951Z 17002KT 23/15 A302 RMK A01 T02270150  RH  062%=      5-min Rain = 0
KSB1 010952Z 17001KT 23/15 A302 RMK A01 T02270149  RH  062%=      5-min Rain = 0
KSB1 010953Z 15001KT 23/15 A302 RMK A01 T02260149  RH  062%=      5-min Rain = 0
KSB1 010954Z 16000KT 23/15 A302 RMK A01 T02260149  RH  062%=      5-min Rain = 0
KSB1 010955Z 12000KT 23/15 A302 RMK A01 T02250149  RH  062%=      5-min Rain = 0
KSB1 010956Z 11001KT 23/15 A302 RMK A01 T02250149  RH  062%=      5-min Rain = 0
KSB1 010957Z 12002KT 23/15 A302 RMK A01 T02260149  RH  062%=      5-min Rain = 0
KSB1 010958Z 12002KT 23/15 A302 RMK A01 T02260149  RH  062%=      5-min Rain = 0
KSB1 010959Z 11002KT 23/15 A302 RMK A01 T02250148  RH  062%=      5-min Rain = 0
KSB1 011000Z 11002KT 23/15 A302 RMK A01 T02260148  RH  061%=      5-min Rain = 0
KSB1 011001Z 11003KT 23/15 A302 RMK A01 T02270149  RH  061%=      5-min Rain = 0
KSB1 011002Z 11003KT 23/15 A302 RMK A01 T02270149  RH  061%=      5-min Rain = 0
KSB1 011003Z 11002KT 23/15 A302 RMK A01 T02280149  RH  061%=      5-min Rain = 0
KSB1 011004Z 11003KT 23/15 A302 RMK A01 T02270148  RH  061%=      5-min Rain = 0
KSB1 011005Z 12003KT 23/15 A302 RMK A01 T02280148  RH  061%=      5-min Rain = 0
KSB1 011006Z 12004KT 23/15 A302 RMK A01 T02280148  RH  061%=      5-min Rain = 0
KSB1 011007Z 12004KT 23/15 A302 RMK A01 T02280148  RH  061%=      5-min Rain = 0
KSB1 011008Z 12003KT 23/15 A302 RMK A01 T02270148  RH  061%=      5-min Rain = 0
KSB1 011009Z 12004KT 23/15 A302 RMK A01 T02270148  RH  061%=      5-min Rain = 0
KSB1 011010Z 12004KT 23/15 A3019 RMK A01 T02270148  RH  061%=      5-min Rain = 0
KSB1 011011Z 12004KT 23/15 A3019 RMK A01 T02270148  RH  061%=      5-min Rain = 0
KSB1 011012Z 12004KT 23/15 A3019 RMK A01 T02260148  RH  061%=      5-min Rain = 0
KSB1 011013Z 12003KT 23/15 A3019 RMK A01 T02260148  RH  061%=      5-min Rain = 0
KSB1 011014Z 13003KT 23/15 A3019 RMK A01 T02260148  RH  062%=      5-min Rain = 0
KSB1 011015Z 12003KT 23/15 A3019 RMK A01 T02250148  RH  062%=      5-min Rain = 0
KSB1 011016Z 12003KT 23/15 A3019 RMK A01 T02250148  RH  062%=      5-min Rain = 0
KSB1 011017Z 11003KT 23/15 A3019 RMK A01 T02250148  RH  062%=      5-min Rain = 0
KSB1 011018Z 10003KT 23/15 A302 RMK A01 T02250149  RH  062%=      5-min Rain = 0
KSB1 011019Z 09002KT 23/15 A302 RMK A01 T02250148  RH  062%=      5-min Rain = 0
KSB1 011020Z 09002KT 22/15 A302 RMK A01 T02240149  RH  062%=      5-min Rain = 0
KSB1 011021Z 08002KT 22/15 A3019 RMK A01 T02240149  RH  062%=      5-min Rain = 0
KSB1 011022Z 07002KT 22/15 A3019 RMK A01 T02230148  RH  062%=      5-min Rain = 0
KSB1 011023Z 05002KT 22/15 A3019 RMK A01 T02230148  RH  063%=      5-min Rain = 0
KSB1 011024Z 05002KT 22/15 A3019 RMK A01 T02220149  RH  063%=      5-min Rain = 0
KSB1 011025Z 04002KT 22/15 A3019 RMK A01 T02220149  RH  063%=      5-min Rain = 0
KSB1 011026Z 03003KT 22/15 A3019 RMK A01 T02210149  RH  063%=      5-min Rain = 0
KSB1 011027Z 03003KT 22/15 A3019 RMK A01 T02210149  RH  064%=      5-min Rain = 0
KSB1 011028Z 03003KT 22/15 A302 RMK A01 T02200149  RH  064%=      5-min Rain = 0
KSB1 011029Z 04003KT 22/15 A3019 RMK A01 T02190149  RH  064%=      5-min Rain = 0
KSB1 011030Z 05003KT 22/15 A3019 RMK A01 T02190149  RH  064%=      5-min Rain = 0
KSB1 011031Z 04002KT 22/15 A3019 RMK A01 T02190149  RH  064%=      5-min Rain = 0
KSB1 011032Z 03003KT 22/15 A3019 RMK A01 T02190149  RH  064%=      5-min Rain = 0
KSB1 011033Z 04003KT 22/15 A3019 RMK A01 T02190149  RH  064%=      5-min Rain = 0
KSB1 011034Z 04004KT 22/15 A3019 RMK A01 T02190149  RH  064%=      5-min Rain = 0
KSB1 011035Z 05004KT 22/15 A3019 RMK A01 T02190149  RH  064%=      5-min Rain = 0
KSB1 011036Z 04003KT 22/15 A3019 RMK A01 T02190148  RH  064%=      5-min Rain = 0
KSB1 011037Z 04003KT 22/15 A3019 RMK A01 T02190149  RH  064%=      5-min Rain = 0
KSB1 011038Z 04003KT 22/15 A3019 RMK A01 T02180149  RH  065%=      5-min Rain = 0
KSB1 011039Z 05003KT 22/15 A3019 RMK A01 T02170149  RH  065%=      5-min Rain = 0
KSB1 011040Z 05003KT 22/15 A3019 RMK A01 T02160149  RH  065%=      5-min Rain = 0
KSB1 011041Z 06003KT 22/15 A3019 RMK A01 T02160149  RH  066%=      5-min Rain = 0
KSB1 011042Z 06003KT 22/15 A3019 RMK A01 T02150149  RH  066%=      5-min Rain = 0
KSB1 011043Z 06003KT 22/15 A3019 RMK A01 T02150148  RH  066%=      5-min Rain = 0
KSB1 011044Z 07003KT 22/15 A3019 RMK A01 T02150147  RH  065%=      5-min Rain = 0
KSB1 011045Z 07003KT 22/15 A3019 RMK A01 T02160148  RH  065%=      5-min Rain = 0
KSB1 011046Z 07002KT 22/15 A3019 RMK A01 T02160148  RH  065%=      5-min Rain = 0
KSB1 011047Z 08003KT 22/15 A302 RMK A01 T02160148  RH  065%=      5-min Rain = 0
KSB1 011048Z 08002KT 22/15 A3019 RMK A01 T02160148  RH  065%=      5-min Rain = 0
KSB1 011049Z 11001KT 22/15 A3019 RMK A01 T02160147  RH  065%=      5-min Rain = 0
KSB1 011050Z 11001KT 22/15 A3019 RMK A01 T02160148  RH  065%=      5-min Rain = 0
KSB1 011051Z 11001KT 22/15 A3019 RMK A01 T02160148  RH  065%=      5-min Rain = 0
KSB1 011052Z 11002KT 22/15 A3019 RMK A01 T02160147  RH  065%=      5-min Rain = 0
KSB1 011053Z 10001KT 22/15 A3019 RMK A01 T02160147  RH  065%=      5-min Rain = 0
KSB1 011054Z 10002KT 22/15 A3019 RMK A01 T02160147  RH  065%=      5-min Rain = 0
KSB1 011055Z 09001KT 22/15 A302 RMK A01 T02160147  RH  065%=      5-min Rain = 0
KSB1 011056Z 08001KT 22/15 A302 RMK A01 T02160147  RH  065%=      5-min Rain = 0
KSB1 011057Z 08001KT 22/15 A302 RMK A01 T02160147  RH  065%=      5-min Rain = 0
KSB1 011058Z 11001KT 22/15 A302 RMK A01 T02160147  RH  065%=      5-min Rain = 0
KSB1 011059Z 00000KT 22/15 A302 RMK A01 T02160147  RH  065%=      5-min Rain = 0
KSB1 011100Z 16000KT 22/15 A302 RMK A01 T02150147  RH  065%=      5-min Rain = 0
KSB1 011101Z 16000KT 22/15 A302 RMK A01 T02150147  RH  065%=      5-min Rain = 0
KSB1 011102Z 18000KT 22/15 A302 RMK A01 T02150147  RH  065%=      5-min Rain = 0
KSB1 011103Z 18000KT 22/15 A302 RMK A01 T02150147  RH  065%=      5-min Rain = 0
KSB1 011104Z 18000KT 22/15 A302 RMK A01 T02150147  RH  065%=      5-min Rain = 0
KSB1 011105Z 00000KT 22/15 A302 RMK A01 T02150147  RH  065%=      5-min Rain = 0
KSB1 011106Z 00000KT 21/15 A302 RMK A01 T02140147  RH  065%=      5-min Rain = 0
KSB1 011107Z 00000KT 21/15 A302 RMK A01 T02140147  RH  066%=      5-min Rain = 0
KSB1 011108Z 00000KT 21/15 A302 RMK A01 T02140147  RH  065%=      5-min Rain = 0
KSB1 011109Z 06000KT 21/15 A302 RMK A01 T02140147  RH  066%=      5-min Rain = 0
KSB1 011110Z 08001KT 21/15 A302 RMK A01 T02140147  RH  065%=      5-min Rain = 0
KSB1 011111Z 09001KT 21/15 A302 RMK A01 T02140146  RH  065%=      5-min Rain = 0
KSB1 011112Z 08002KT 22/15 A302 RMK A01 T02150146  RH  065%=      5-min Rain = 0
KSB1 011113Z 09002KT 22/15 A302 RMK A01 T02150146  RH  065%=      5-min Rain = 0
KSB1 011114Z 10003KT 22/15 A302 RMK A01 T02150147  RH  065%=      5-min Rain = 0
KSB1 011115Z 10003KT 22/15 A302 RMK A01 T02150147  RH  065%=      5-min Rain = 0
KSB1 011116Z 11003KT 21/15 A302 RMK A01 T02140147  RH  065%=      5-min Rain = 0
KSB1 011117Z 12002KT 21/15 A302 RMK A01 T02140146  RH  065%=      5-min Rain = 0
KSB1 011118Z 14003KT 21/15 A302 RMK A01 T02140146  RH  065%=      5-min Rain = 0
KSB1 011119Z 13003KT 21/15 A302 RMK A01 T02140146  RH  065%=      5-min Rain = 0
KSB1 011120Z 18002KT 22/15 A302 RMK A01 T02150147  RH  065%=      5-min Rain = 0
KSB1 011121Z 20002KT 21/15 A302 RMK A01 T02140147  RH  066%=      5-min Rain = 0
KSB1 011122Z 22002KT 21/15 A302 RMK A01 T02120146  RH  066%=      5-min Rain = 0
KSB1 011123Z 23002KT 21/15 A302 RMK A01 T02120147  RH  066%=      5-min Rain = 0
KSB1 011124Z 24001KT 21/15 A302 RMK A01 T02120147  RH  066%=      5-min Rain = 0
KSB1 011125Z 22001KT 21/15 A302 RMK A01 T02120147  RH  066%=      5-min Rain = 0
KSB1 011126Z 22001KT 21/15 A302 RMK A01 T02120146  RH  066%=      5-min Rain = 0
KSB1 011127Z 23002KT 21/15 A302 RMK A01 T02130147  RH  066%=      5-min Rain = 0
KSB1 011128Z 24001KT 21/15 A302 RMK A01 T02140147  RH  066%=      5-min Rain = 0
KSB1 011129Z 26001KT 21/15 A302 RMK A01 T02130147  RH  066%=      5-min Rain = 0
KSB1 011130Z 27001KT 21/15 A302 RMK A01 T02130147  RH  066%=      5-min Rain = 0
KSB1 011131Z 28001KT 21/15 A302 RMK A01 T02130147  RH  066%=      5-min Rain = 0
KSB1 011132Z 26002KT 21/15 A302 RMK A01 T02130147  RH  066%=      5-min Rain = 0
KSB1 011133Z 24002KT 21/15 A302 RMK A01 T02140147  RH  065%=      5-min Rain = 0
KSB1 011134Z 24003KT 21/15 A302 RMK A01 T02140147  RH  066%=      5-min Rain = 0
KSB1 011135Z 24004KT 21/15 A302 RMK A01 T02130147  RH  066%=      5-min Rain = 0
KSB1 011136Z 24004KT 21/15 A302 RMK A01 T02110147  RH  067%=      5-min Rain = 0
KSB1 011137Z 24003KT 21/15 A302 RMK A01 T02080147  RH  068%=      5-min Rain = 0
KSB1 011138Z 24003KT 21/15 A302 RMK A01 T02070147  RH  068%=      5-min Rain = 0
KSB1 011139Z 24003KT 21/15 A302 RMK A01 T02070147  RH  068%=      5-min Rain = 0
KSB1 011140Z 24002KT 21/15 A302 RMK A01 T02070146  RH  068%=      5-min Rain = 0
KSB1 011141Z 24002KT 21/15 A302 RMK A01 T02070146  RH  068%=      5-min Rain = 0
KSB1 011142Z 25001KT 21/15 A302 RMK A01 T02080146  RH  068%=      5-min Rain = 0
KSB1 011143Z 24001KT 21/15 A302 RMK A01 T02090147  RH  067%=      5-min Rain = 0
KSB1 011144Z 22002KT 21/15 A302 RMK A01 T02100147  RH  067%=      5-min Rain = 0
KSB1 011145Z 23003KT 21/15 A302 RMK A01 T02100147  RH  067%=      5-min Rain = 0
KSB1 011146Z 24003KT 21/15 A302 RMK A01 T02100147  RH  067%=      5-min Rain = 0
KSB1 011147Z 24002KT 21/15 A302 RMK A01 T02100147  RH  067%=      5-min Rain = 0
KSB1 011148Z 24003KT 21/15 A302 RMK A01 T02100147  RH  067%=      5-min Rain = 0
KSB1 011149Z 24004KT 21/15 A302 RMK A01 T02110147  RH  067%=      5-min Rain = 0
KSB1 011150Z 24004KT 21/15 A302 RMK A01 T02110147  RH  067%=      5-min Rain = 0
KSB1 011151Z 24004KT 21/15 A302 RMK A01 T02100147  RH  067%=      5-min Rain = 0
KSB1 011152Z 24004KT 21/15 A302 RMK A01 T02090147  RH  068%=      5-min Rain = 0
KSB1 011153Z 24004KT 21/15 A302 RMK A01 T02080147  RH  068%=      5-min Rain = 0
KSB1 011154Z 24003KT 21/15 A302 RMK A01 T02080147  RH  068%=      5-min Rain = 0
KSB1 011155Z 25003KT 21/15 A302 RMK A01 T02080147  RH  068%=      5-min Rain = 0
KSB1 011156Z 26003KT 21/15 A302 RMK A01 T02080147  RH  068%=      5-min Rain = 0
KSB1 011157Z 26003KT 21/15 A302 RMK A01 T02090147  RH  068%=      5-min Rain = 0
KSB1 011158Z 26003KT 21/15 A302 RMK A01 T02090147  RH  067%=      5-min Rain = 0
KSB1 011159Z 26003KT 21/15 A3021 RMK A01 T02100147  RH  067%=      5-min Rain = 0
KSB1 011200Z 26003KT 21/15 A3021 RMK A01 T02110147  RH  067%=      5-min Rain = 0
KSB1 011201Z 26002KT 21/15 A3021 RMK A01 T02110147  RH  067%=      5-min Rain = 0
KSB1 011202Z 27001KT 21/15 A3021 RMK A01 T02120147  RH  066%=      5-min Rain = 0
KSB1 011203Z 28001KT 21/15 A3021 RMK A01 T02120147  RH  066%=      5-min Rain = 0
KSB1 011204Z 28001KT 21/15 A3021 RMK A01 T02120146  RH  066%=      5-min Rain = 0
KSB1 011205Z 28000KT 21/15 A3021 RMK A01 T02130146  RH  066%=      5-min Rain = 0
KSB1 011206Z 00000KT 21/15 A3021 RMK A01 T02140146  RH  065%=      5-min Rain = 0
KSB1 011207Z 28000KT 22/15 A3021 RMK A01 T02150146  RH  065%=      5-min Rain = 0
KSB1 011208Z 00000KT 22/15 A3021 RMK A01 T02160146  RH  064%=      5-min Rain = 0
KSB1 011209Z 00000KT 22/15 A3021 RMK A01 T02170146  RH  064%=      5-min Rain = 0
KSB1 011210Z 25000KT 22/15 A3021 RMK A01 T02180146  RH  064%=      5-min Rain = 0
KSB1 011211Z 25001KT 22/15 A3021 RMK A01 T02180146  RH  064%=      5-min Rain = 0
KSB1 011212Z 25000KT 22/15 A3021 RMK A01 T02190146  RH  063%=      5-min Rain = 0
KSB1 011213Z 27001KT 22/15 A3021 RMK A01 T02190147  RH  063%=      5-min Rain = 0
KSB1 011214Z 29000KT 22/15 A3021 RMK A01 T02190147  RH  063%=      5-min Rain = 0
KSB1 011215Z 29000KT 22/15 A3021 RMK A01 T02190146  RH  063%=      5-min Rain = 0
KSB1 011216Z 02000KT 22/15 A3021 RMK A01 T02190146  RH  063%=      5-min Rain = 0
KSB1 011217Z 02001KT 22/15 A3021 RMK A01 T02190146  RH  063%=      5-min Rain = 0
KSB1 011218Z 02001KT 22/15 A3021 RMK A01 T02200146  RH  063%=      5-min Rain = 0
KSB1 011219Z 02001KT 22/15 A3021 RMK A01 T02200146  RH  063%=      5-min Rain = 0
KSB1 011220Z 02001KT 22/15 A3021 RMK A01 T02200146  RH  063%=      5-min Rain = 0
KSB1 011221Z 36003KT 22/15 A3021 RMK A01 T02200147  RH  063%=      5-min Rain = 0
KSB1 011222Z 35003KT 22/15 A3022 RMK A01 T02190148  RH  064%=      5-min Rain = 0
KSB1 011223Z 34003KT 22/15 A3022 RMK A01 T02170148  RH  065%=      5-min Rain = 0
KSB1 011224Z 34004KT 21/15 A3022 RMK A01 T02140148  RH  066%=      5-min Rain = 0
KSB1 011225Z 34004KT 21/15 A3021 RMK A01 T02120148  RH  067%=      5-min Rain = 0
KSB1 011226Z 33004KT 21/15 A3022 RMK A01 T02110148  RH  067%=      5-min Rain = 0
KSB1 011227Z 33004KT 21/15 A3022 RMK A01 T02110148  RH  067%=      5-min Rain = 0
KSB1 011228Z 33003KT 21/15 A3022 RMK A01 T02110147  RH  067%=      5-min Rain = 0
KSB1 011229Z 33004KT 21/15 A3022 RMK A01 T02120147  RH  066%=      5-min Rain = 0
KSB1 011230Z 33004KT 21/15 A3022 RMK A01 T02120147  RH  066%=      5-min Rain = 0
KSB1 011231Z 32004KT 21/15 A3022 RMK A01 T02120148  RH  066%=      5-min Rain = 0
KSB1 011232Z 32003KT 21/15 A3022 RMK A01 T02120147  RH  066%=      5-min Rain = 0
KSB1 011233Z 31003KT 21/15 A3022 RMK A01 T02130148  RH  066%=      5-min Rain = 0
KSB1 011234Z 30004KT 21/15 A3022 RMK A01 T02140147  RH  066%=      5-min Rain = 0
KSB1 011235Z 29003KT 22/15 A3022 RMK A01 T02150148  RH  066%=      5-min Rain = 0
KSB1 011236Z 28003KT 22/15 A3022 RMK A01 T02150149  RH  066%=      5-min Rain = 0
KSB1 011237Z 27003KT 21/15 A3022 RMK A01 T02140149  RH  066%=      5-min Rain = 0
KSB1 011238Z 27003KT 21/15 A3021 RMK A01 T02130148  RH  067%=      5-min Rain = 0
KSB1 011239Z 26003KT 21/15 A3021 RMK A01 T02130148  RH  067%=      5-min Rain = 0
KSB1 011240Z 26004KT 21/15 A3022 RMK A01 T02130148  RH  067%=      5-min Rain = 0
KSB1 011241Z 27004KT 21/15 A3022 RMK A01 T02130148  RH  067%=      5-min Rain = 0
KSB1 011242Z 27004KT 21/15 A3022 RMK A01 T02130148  RH  066%=      5-min Rain = 0
KSB1 011243Z 27004KT 21/15 A3022 RMK A01 T02130148  RH  066%=      5-min Rain = 0
KSB1 011244Z 27004KT 21/15 A3022 RMK A01 T02130148  RH  066%=      5-min Rain = 0
KSB1 011245Z 27004KT 21/15 A3022 RMK A01 T02130148  RH  066%=      5-min Rain = 0
KSB1 011246Z 26004KT 21/15 A3022 RMK A01 T02140148  RH  066%=      5-min Rain = 0
KSB1 011247Z 26004KT 21/15 A3022 RMK A01 T02140149  RH  066%=      5-min Rain = 0
KSB1 011248Z 27004KT 21/15 A3022 RMK A01 T02140149  RH  066%=      5-min Rain = 0
KSB1 011249Z 27004KT 21/15 A3022 RMK A01 T02140149  RH  066%=      5-min Rain = 0
KSB1 011250Z 27004KT 22/15 A3022 RMK A01 T02150149  RH  066%=      5-min Rain = 0
KSB1 011251Z 27004KT 22/15 A3022 RMK A01 T02150149  RH  066%=      5-min Rain = 0
KSB1 011252Z 27004KT 22/15 A3022 RMK A01 T02150150  RH  066%=      5-min Rain = 0
KSB1 011253Z 27003KT 22/15 A3022 RMK A01 T02150150  RH  066%=      5-min Rain = 0
KSB1 011254Z 27003KT 22/15 A3022 RMK A01 T02150151  RH  067%=      5-min Rain = 0
KSB1 011255Z 27003KT 21/15 A3022 RMK A01 T02140151  RH  067%=      5-min Rain = 0
KSB1 011256Z 27003KT 21/15 A3022 RMK A01 T02130152  RH  068%=      5-min Rain = 0
KSB1 011257Z 27003KT 21/15 A3022 RMK A01 T02130151  RH  068%=      5-min Rain = 0
KSB1 011258Z 27003KT 21/15 A3022 RMK A01 T02120151  RH  068%=      5-min Rain = 0
KSB1 011259Z 27002KT 21/15 A3022 RMK A01 T02120152  RH  068%=      5-min Rain = 0
KSB1 011300Z 28002KT 21/15 A3022 RMK A01 T02120152  RH  069%=      5-min Rain = 0
KSB1 011301Z 28001KT 21/15 A3022 RMK A01 T02130152  RH  068%=      5-min Rain = 0
KSB1 011302Z 30001KT 21/15 A3022 RMK A01 T02140152  RH  068%=      5-min Rain = 0
KSB1 011303Z 32001KT 22/15 A3022 RMK A01 T02150151  RH  067%=      5-min Rain = 0
KSB1 011304Z 36002KT 22/15 A3022 RMK A01 T02180151  RH  066%=      5-min Rain = 0
KSB1 011305Z 01003KT 22/15 A3022 RMK A01 T02200152  RH  065%=      5-min Rain = 0
KSB1 011306Z 01002KT 22/15 A3022 RMK A01 T02210154  RH  065%=      5-min Rain = 0
KSB1 011307Z 01001KT 22/15 A3022 RMK A01 T02220154  RH  066%=      5-min Rain = 0
KSB1 011308Z 00001KT 22/15 A3022 RMK A01 T02230154  RH  065%=      5-min Rain = 0
KSB1 011309Z 00001KT 22/15 A3022 RMK A01 T02240153  RH  064%=      5-min Rain = 0
KSB1 011310Z 00000KT 22/15 A3022 RMK A01 T02240152  RH  064%=      5-min Rain = 0
KSB1 011311Z 00000KT 23/15 A3022 RMK A01 T02250153  RH  064%=      5-min Rain = 0
KSB1 011312Z 01000KT 23/15 A3022 RMK A01 T02260152  RH  063%=      5-min Rain = 0
KSB1 011313Z 00001KT 23/15 A3022 RMK A01 T02270152  RH  063%=      5-min Rain = 0
KSB1 011314Z 00002KT 23/15 A3022 RMK A01 T02280152  RH  062%=      5-min Rain = 0
KSB1 011315Z 36002KT 23/15 A3022 RMK A01 T02290153  RH  062%=      5-min Rain = 0
KSB1 011316Z 35002KT 23/15 A3022 RMK A01 T02300153  RH  062%=      5-min Rain = 0
KSB1 011317Z 34003KT 23/15 A3023 RMK A01 T02300153  RH  062%=      5-min Rain = 0
KSB1 011318Z 34002KT 23/16 A3023 RMK A01 T02300156  RH  063%=      5-min Rain = 0
KSB1 011319Z 34003KT 23/16 A3023 RMK A01 T02310157  RH  063%=      5-min Rain = 0
KSB1 011320Z 34003KT 23/16 A3023 RMK A01 T02310156  RH  063%=      5-min Rain = 0
KSB1 011321Z 34003KT 23/16 A3023 RMK A01 T02320156  RH  063%=      5-min Rain = 0
KSB1 011322Z 34003KT 23/15 A3023 RMK A01 T02320154  RH  061%=      5-min Rain = 0
KSB1 011323Z 34003KT 23/15 A3023 RMK A01 T02330153  RH  061%=      5-min Rain = 0
KSB1 011324Z 35003KT 23/15 A3023 RMK A01 T02340152  RH  060%=      5-min Rain = 0
KSB1 011325Z 35003KT 23/15 A3023 RMK A01 T02340152  RH  060%=      5-min Rain = 0
KSB1 011326Z 34003KT 24/15 A3023 RMK A01 T02350152  RH  060%=      5-min Rain = 0
KSB1 011327Z 34003KT 24/15 A3023 RMK A01 T02360152  RH  059%=      5-min Rain = 0
KSB1 011328Z 34002KT 24/15 A3023 RMK A01 T02360152  RH  059%=      5-min Rain = 0
KSB1 011329Z 33003KT 24/15 A3023 RMK A01 T02370151  RH  058%=      5-min Rain = 0
KSB1 011330Z 33002KT 24/15 A3023 RMK A01 T02380151  RH  058%=      5-min Rain = 0
KSB1 011331Z 33002KT 24/15 A3023 RMK A01 T02380149  RH  057%=      5-min Rain = 0
KSB1 011332Z 34002KT 24/15 A3023 RMK A01 T02380151  RH  058%=      5-min Rain = 0
KSB1 011333Z 32002KT 24/15 A3023 RMK A01 T02390150  RH  058%=      5-min Rain = 0
KSB1 011334Z 33001KT 24/15 A3023 RMK A01 T02400150  RH  057%=      5-min Rain = 0
KSB1 011335Z 33001KT 24/15 A3023 RMK A01 T02410151  RH  057%=      5-min Rain = 0
KSB1 011336Z 34002KT 24/15 A3023 RMK A01 T02420151  RH  057%=      5-min Rain = 0
KSB1 011337Z 36001KT 24/15 A3023 RMK A01 T02420148  RH  055%=      5-min Rain = 0
KSB1 011338Z 00000KT 24/15 A3023 RMK A01 T02430147  RH  055%=      5-min Rain = 0
KSB1 011339Z 00000KT 24/15 A3023 RMK A01 T02440147  RH  054%=      5-min Rain = 0
KSB1 011340Z 00000KT 25/15 A3023 RMK A01 T02460147  RH  054%=      5-min Rain = 0
KSB1 011341Z 00000KT 25/15 A3023 RMK A01 T02480146  RH  053%=      5-min Rain = 0
KSB1 011342Z 00000KT 25/15 A3023 RMK A01 T02500147  RH  053%=      5-min Rain = 0
KSB1 011343Z 00000KT 25/15 A3023 RMK A01 T02520148  RH  052%=      5-min Rain = 0
KSB1 011344Z 00002KT 25/15 A3023 RMK A01 T02540148  RH  052%=      5-min Rain = 0
KSB1 011345Z 00002KT 25/15 A3023 RMK A01 T02530150  RH  053%=      5-min Rain = 0
KSB1 011346Z 36003KT 25/15 A3023 RMK A01 T02520151  RH  053%=      5-min Rain = 0
KSB1 011347Z 01003KT 25/15 A3023 RMK A01 T02510150  RH  053%=      5-min Rain = 0
KSB1 011348Z 00003KT 25/15 A3023 RMK A01 T02500149  RH  053%=      5-min Rain = 0
KSB1 011349Z 00003KT 25/15 A3023 RMK A01 T02480150  RH  054%=      5-min Rain = 0
KSB1 011350Z 00004KT 25/15 A3023 RMK A01 T02470149  RH  054%=      5-min Rain = 0
KSB1 011351Z 00004KT 25/15 A3023 RMK A01 T02470149  RH  054%=      5-min Rain = 0
KSB1 011352Z 36004KT 25/15 A3023 RMK A01 T02470148  RH  054%=      5-min Rain = 0
KSB1 011353Z 35004KT 25/15 A3023 RMK A01 T02470148  RH  054%=      5-min Rain = 0
KSB1 011354Z 36004KT 25/15 A3023 RMK A01 T02470149  RH  054%=      5-min Rain = 0
KSB1 011355Z 36004KT 25/15 A3023 RMK A01 T02480149  RH  054%=      5-min Rain = 0
KSB1 011356Z 36004KT 25/15 A3023 RMK A01 T02480148  RH  054%=      5-min Rain = 0
KSB1 011357Z 35005KT 25/15 A3023 RMK A01 T02470149  RH  054%=      5-min Rain = 0
KSB1 011358Z 34003KT 25/15 A3023 RMK A01 T02480149  RH  054%=      5-min Rain = 0
KSB1 011359Z 36004KT 25/15 A3023 RMK A01 T02490149  RH  054%=      5-min Rain = 0
KSB1 011400Z 35004KT 25/15 A3023 RMK A01 T02500149  RH  053%=      5-min Rain = 0
KSB1 011401Z 35003KT 25/15 A3023 RMK A01 T02500148  RH  053%=      5-min Rain = 0
KSB1 011402Z 35004KT 25/15 A3023 RMK A01 T02500148  RH  053%=      5-min Rain = 0
KSB1 011403Z 35004KT 25/15 A3023 RMK A01 T02500148  RH  053%=      5-min Rain = 0
KSB1 011404Z 34004KT 25/15 A3023 RMK A01 T02490148  RH  054%=      5-min Rain = 0
KSB1 011405Z 35003KT 25/15 A3023 RMK A01 T02490149  RH  054%=      5-min Rain = 0
KSB1 011406Z 34003KT 25/15 A3023 RMK A01 T02490150  RH  054%=      5-min Rain = 0
KSB1 011407Z 35005KT 25/15 A3023 RMK A01 T02510150  RH  054%=      5-min Rain = 0
KSB1 011408Z 35004KT 25/15 A3023 RMK A01 T02520150  RH  053%=      5-min Rain = 0
KSB1 011409Z 34002KT 25/15 A3024 RMK A01 T02520150  RH  053%=      5-min Rain = 0
KSB1 011410Z 35002KT 25/15 A3024 RMK A01 T02520151  RH  053%=      5-min Rain = 0
KSB1 011411Z 03003KT 25/15 A3024 RMK A01 T02520151  RH  053%=      5-min Rain = 0
KSB1 011412Z 02003KT 25/15 A3024 RMK A01 T02540151  RH  053%=      5-min Rain = 0
KSB1 011413Z 01002KT 25/15 A3024 RMK A01 T02540150  RH  052%=      5-min Rain = 0
KSB1 011414Z 04003KT 25/15 A3024 RMK A01 T02540150  RH  052%=      5-min Rain = 0
KSB1 011415Z 05003KT 26/15 A3024 RMK A01 T02550149  RH  052%=      5-min Rain = 0
KSB1 011416Z 02002KT 26/15 A3024 RMK A01 T02550150  RH  052%=      5-min Rain = 0
KSB1 011417Z 00002KT 26/15 A3024 RMK A01 T02550150  RH  052%=      5-min Rain = 0
KSB1 011418Z 35002KT 26/15 A3024 RMK A01 T02560150  RH  052%=      5-min Rain = 0
KSB1 011419Z 05002KT 26/15 A3024 RMK A01 T02570151  RH  052%=      5-min Rain = 0
KSB1 011420Z 05003KT 26/15 A3024 RMK A01 T02570150  RH  051%=      5-min Rain = 0
KSB1 011421Z 04004KT 26/15 A3024 RMK A01 T02580150  RH  051%=      5-min Rain = 0
KSB1 011422Z 05002KT 26/15 A3024 RMK A01 T02580149  RH  051%=      5-min Rain = 0
KSB1 011423Z 05003KT 26/15 A3024 RMK A01 T02590149  RH  051%=      5-min Rain = 0
KSB1 011424Z 05002KT 26/15 A3024 RMK A01 T02580147  RH  050%=      5-min Rain = 0
KSB1 011425Z 05001KT 26/15 A3024 RMK A01 T02580147  RH  050%=      5-min Rain = 0
KSB1 011426Z 05000KT 26/15 A3024 RMK A01 T02580146  RH  050%=      5-min Rain = 0
KSB1 011427Z 03001KT 26/15 A3024 RMK A01 T02590146  RH  050%=      5-min Rain = 0
KSB1 011428Z 04002KT 26/15 A3024 RMK A01 T02620147  RH  049%=      5-min Rain = 0
KSB1 011429Z 03001KT 26/15 A3024 RMK A01 T02620146  RH  049%=      5-min Rain = 0
KSB1 011430Z 02000KT 26/15 A3024 RMK A01 T02620146  RH  049%=      5-min Rain = 0
KSB1 011431Z 04000KT 26/15 A3024 RMK A01 T02640147  RH  049%=      5-min Rain = 0
KSB1 011432Z 04002KT 26/15 A3024 RMK A01 T02640147  RH  049%=      5-min Rain = 0
KSB1 011433Z 07003KT 27/15 A3024 RMK A01 T02650148  RH  049%=      5-min Rain = 0
KSB1 011434Z 08003KT 26/15 A3024 RMK A01 T02640147  RH  048%=      5-min Rain = 0
KSB1 011435Z 06004KT 26/15 A3024 RMK A01 T02640147  RH  049%=      5-min Rain = 0
KSB1 011436Z 07004KT 26/15 A3024 RMK A01 T02630147  RH  049%=      5-min Rain = 0
KSB1 011437Z 07004KT 26/15 A3024 RMK A01 T02630147  RH  049%=      5-min Rain = 0
KSB1 011438Z 07003KT 26/15 A3024 RMK A01 T02620147  RH  049%=      5-min Rain = 0
KSB1 011439Z 06002KT 26/15 A3024 RMK A01 T02620148  RH  049%=      5-min Rain = 0
KSB1 011440Z 02002KT 26/15 A3024 RMK A01 T02640147  RH  049%=      5-min Rain = 0
KSB1 011441Z 02002KT 26/15 A3024 RMK A01 T02640146  RH  048%=      5-min Rain = 0
KSB1 011442Z 04001KT 26/15 A3024 RMK A01 T02640146  RH  048%=      5-min Rain = 0
KSB1 011443Z 05003KT 27/15 A3024 RMK A01 T02660147  RH  048%=      5-min Rain = 0
KSB1 011444Z 06003KT 27/15 A3024 RMK A01 T02670148  RH  048%=      5-min Rain = 0
KSB1 011445Z 05003KT 27/15 A3024 RMK A01 T02670148  RH  048%=      5-min Rain = 0
KSB1 011446Z 05003KT 27/15 A3024 RMK A01 T02660147  RH  048%=      5-min Rain = 0
KSB1 011447Z 03002KT 27/15 A3024 RMK A01 T02660148  RH  048%=      5-min Rain = 0
KSB1 011448Z 02003KT 27/15 A3024 RMK A01 T02680148  RH  048%=      5-min Rain = 0
KSB1 011449Z 03004KT 27/15 A3024 RMK A01 T02680148  RH  048%=      5-min Rain = 0
KSB1 011450Z 03004KT 27/15 A3024 RMK A01 T02680148  RH  048%=      5-min Rain = 0
KSB1 011451Z 03005KT 27/15 A3024 RMK A01 T02680147  RH  047%=      5-min Rain = 0
KSB1 011452Z 04004KT 27/15 A3024 RMK A01 T02680148  RH  048%=      5-min Rain = 0
KSB1 011453Z 05003KT 27/15 A3024 RMK A01 T02680147  RH  047%=      5-min Rain = 0
KSB1 011454Z 04002KT 27/15 A3024 RMK A01 T02680147  RH  048%=      5-min Rain = 0
KSB1 011455Z 01003KT 27/15 A3024 RMK A01 T02680146  RH  047%=      5-min Rain = 0
KSB1 011456Z 02002KT 27/15 A3024 RMK A01 T02690146  RH  047%=      5-min Rain = 0
KSB1 011457Z 04003KT 27/15 A3024 RMK A01 T02690147  RH  047%=      5-min Rain = 0
KSB1 011458Z 03005KT 27/15 A3024 RMK A01 T02700149  RH  048%=      5-min Rain = 0
KSB1 011459Z 03004KT 27/15 A3024 RMK A01 T02720148  RH  046%=      5-min Rain = 0
KSB1 011500Z 03002KT 27/15 A3024 RMK A01 T02710147  RH  047%=      5-min Rain = 0
KSB1 011501Z 03001KT 27/15 A3024 RMK A01 T02700147  RH  047%=      5-min Rain = 0
KSB1 011502Z 00003KT 27/15 A3024 RMK A01 T02700147  RH  047%=      5-min Rain = 0
KSB1 011503Z 00004KT 27/15 A3024 RMK A01 T02720147  RH  047%=      5-min Rain = 0
KSB1 011504Z 03003KT 27/15 A3024 RMK A01 T02730147  RH  046%=      5-min Rain = 0
KSB1 011505Z 04004KT 27/15 A3024 RMK A01 T02730147  RH  046%=      5-min Rain = 0
KSB1 011506Z 04002KT 27/15 A3024 RMK A01 T02720147  RH  046%=      5-min Rain = 0
KSB1 011507Z 03003KT 27/15 A3024 RMK A01 T02710147  RH  047%=      5-min Rain = 0
KSB1 011508Z 03001KT 27/15 A3024 RMK A01 T02730147  RH  046%=      5-min Rain = 0
KSB1 011509Z 02002KT 27/15 A3024 RMK A01 T02740147  RH  046%=      5-min Rain = 0
KSB1 011510Z 01004KT 28/15 A3024 RMK A01 T02760147  RH  045%=      5-min Rain = 0
KSB1 011511Z 36004KT 28/15 A3025 RMK A01 T02750147  RH  045%=      5-min Rain = 0
KSB1 011512Z 36003KT 27/15 A3025 RMK A01 T02740147  RH  046%=      5-min Rain = 0
KSB1 011513Z 02004KT 27/15 A3025 RMK A01 T02730147  RH  046%=      5-min Rain = 0
KSB1 011514Z 34002KT 27/15 A3025 RMK A01 T02730147  RH  046%=      5-min Rain = 0
KSB1 011515Z 35001KT 27/15 A3025 RMK A01 T02720147  RH  046%=      5-min Rain = 0
KSB1 011516Z 01002KT 27/15 A3025 RMK A01 T02720146  RH  046%=      5-min Rain = 0
KSB1 011517Z 01001KT 27/15 A3025 RMK A01 T02710146  RH  046%=      5-min Rain = 0
KSB1 011518Z 36004KT 27/15 A3025 RMK A01 T02720147  RH  046%=      5-min Rain = 0
KSB1 011519Z 36004KT 27/15 A3025 RMK A01 T02730147  RH  046%=      5-min Rain = 0
KSB1 011520Z 35005KT 27/15 A3025 RMK A01 T02730147  RH  046%=      5-min Rain = 0
KSB1 011521Z 34003KT 27/15 A3025 RMK A01 T02730147  RH  046%=      5-min Rain = 0
KSB1 011522Z 35003KT 27/15 A3025 RMK A01 T02730147  RH  046%=      5-min Rain = 0
KSB1 011523Z 02002KT 27/15 A3025 RMK A01 T02740149  RH  046%=      5-min Rain = 0
KSB1 011524Z 35001KT 28/15 A3025 RMK A01 T02760149  RH  046%=      5-min Rain = 0
KSB1 011525Z 07003KT 28/15 A3025 RMK A01 T02790149  RH  045%=      5-min Rain = 0
KSB1 011526Z 07003KT 28/15 A3025 RMK A01 T02820149  RH  044%=      5-min Rain = 0
KSB1 011527Z 08003KT 28/15 A3025 RMK A01 T02810149  RH  044%=      5-min Rain = 0
KSB1 011528Z 08004KT 28/15 A3025 RMK A01 T02810148  RH  044%=      5-min Rain = 0
KSB1 011529Z 06003KT 28/15 A3025 RMK A01 T02810149  RH  044%=      5-min Rain = 0
KSB1 011530Z 05003KT 28/15 A3025 RMK A01 T02820149  RH  044%=      5-min Rain = 0
KSB1 011531Z 07002KT 28/15 A3025 RMK A01 T02830150  RH  044%=      5-min Rain = 0
KSB1 011532Z 08001KT 29/15 A3025 RMK A01 T02860150  RH  044%=      5-min Rain = 0
KSB1 011533Z 10001KT 29/15 A3025 RMK A01 T02880151  RH  043%=      5-min Rain = 0
KSB1 011534Z 11002KT 29/15 A3025 RMK A01 T02890149  RH  043%=      5-min Rain = 0
KSB1 011535Z 11001KT 29/15 A3025 RMK A01 T02900150  RH  042%=      5-min Rain = 0
KSB1 011536Z 00000KT 29/15 A3025 RMK A01 T02910150  RH  042%=      5-min Rain = 0
KSB1 011537Z 07001KT 29/15 A3025 RMK A01 T02930148  RH  041%=      5-min Rain = 0
KSB1 011538Z 07001KT 29/15 A3025 RMK A01 T02940150  RH  041%=      5-min Rain = 0
KSB1 011539Z 08001KT 30/15 A3026 RMK A01 T02950148  RH  041%=      5-min Rain = 0
KSB1 011540Z 10000KT 29/15 A3025 RMK A01 T02920147  RH  041%=      5-min Rain = 0
KSB1 011541Z 14002KT 29/15 A3026 RMK A01 T02910149  RH  042%=      5-min Rain = 0
KSB1 011542Z 15003KT 29/15 A3026 RMK A01 T02910147  RH  041%=      5-min Rain = 0
KSB1 011543Z 14003KT 29/15 A3026 RMK A01 T02890146  RH  042%=      5-min Rain = 0
KSB1 011544Z 15003KT 29/15 A3026 RMK A01 T02870147  RH  042%=      5-min Rain = 0
KSB1 011545Z 15003KT 29/15 A3026 RMK A01 T02870147  RH  042%=      5-min Rain = 0
KSB1 011546Z 15003KT 29/15 A3026 RMK A01 T02870146  RH  042%=      5-min Rain = 0
KSB1 011547Z 16001KT 29/15 A3026 RMK A01 T02850145  RH  042%=      5-min Rain = 0
KSB1 011548Z 00000KT 28/15 A3026 RMK A01 T02840145  RH  043%=      5-min Rain = 0
KSB1 011549Z 04000KT 29/15 A3026 RMK A01 T02850146  RH  043%=      5-min Rain = 0
KSB1 011550Z 00000KT 29/15 A3026 RMK A01 T02870148  RH  043%=      5-min Rain = 0
KSB1 011551Z 16001KT 29/15 A3026 RMK A01 T02910149  RH  042%=      5-min Rain = 0
KSB1 011552Z 16004KT 29/15 A3026 RMK A01 T02940149  RH  041%=      5-min Rain = 0
KSB1 011553Z 17004KT 30/15 A3026 RMK A01 T02960148  RH  041%=      5-min Rain = 0
KSB1 011554Z 15003KT 30/15 A3026 RMK A01 T02960147  RH  040%=      5-min Rain = 0
KSB1 011555Z 16003KT 30/15 A3026 RMK A01 T02950145  RH  040%=      5-min Rain = 0
KSB1 011556Z 17002KT 30/14 A3026 RMK A01 T02950144  RH  040%=      5-min Rain = 0
KSB1 011557Z 17002KT 29/14 A3026 RMK A01 T02920143  RH  040%=      5-min Rain = 0
KSB1 011558Z 20001KT 29/14 A3026 RMK A01 T02900143  RH  041%=      5-min Rain = 0
KSB1 011559Z 19001KT 29/14 A3026 RMK A01 T02890143  RH  041%=      5-min Rain = 0
KSB1 011600Z 19000KT 29/14 A3026 RMK A01 T02880143  RH  041%=      5-min Rain = 0
KSB1 011601Z 05001KT 29/14 A3026 RMK A01 T02890144  RH  041%=      5-min Rain = 0
KSB1 011602Z 07001KT 29/14 A3026 RMK A01 T02910144  RH  041%=      5-min Rain = 0
KSB1 011603Z 08002KT 29/15 A3026 RMK A01 T02940145  RH  040%=      5-min Rain = 0
KSB1 011604Z 06001KT 30/15 A3026 RMK A01 T02950145  RH  040%=      5-min Rain = 0
KSB1 011605Z 09001KT 30/15 A3026 RMK A01 T02950146  RH  040%=      5-min Rain = 0
KSB1 011606Z 18002KT 30/15 A3026 RMK A01 T02980148  RH  040%=      5-min Rain = 0
KSB1 011607Z 19004KT 30/15 A3026 RMK A01 T03000146  RH  039%=      5-min Rain = 0
KSB1 011608Z 20002KT 30/14 A3026 RMK A01 T02980144  RH  039%=      5-min Rain = 0
KSB1 011609Z 21003KT 30/15 A3026 RMK A01 T02970146  RH  040%=      5-min Rain = 0
KSB1 011610Z 20003KT 30/15 A3026 RMK A01 T02960145  RH  040%=      5-min Rain = 0
KSB1 011611Z 20002KT 30/14 A3026 RMK A01 T02950144  RH  040%=      5-min Rain = 0
KSB1 011612Z 18005KT 29/14 A3026 RMK A01 T02940144  RH  040%=      5-min Rain = 0
KSB1 011613Z 16004KT 30/14 A3026 RMK A01 T02960140  RH  039%=      5-min Rain = 0
KSB1 011614Z 20003KT 30/14 A3026 RMK A01 T02960138  RH  038%=      5-min Rain = 0
KSB1 011615Z 23005KT 30/14 A3026 RMK A01 T02970140  RH  038%=      5-min Rain = 0
KSB1 011616Z 18004KT 30/14 A3026 RMK A01 T02950139  RH  038%=      5-min Rain = 0
KSB1 011617Z 13005KT 29/14 A3026 RMK A01 T02940140  RH  039%=      5-min Rain = 0
KSB1 011618Z 14003KT 30/14 A3026 RMK A01 T02950140  RH  039%=      5-min Rain = 0
KSB1 011619Z 16004KT 30/14 A3026 RMK A01 T02970142  RH  039%=      5-min Rain = 0
KSB1 011620Z 14004KT 30/14 A3026 RMK A01 T02990140  RH  038%=      5-min Rain = 0
KSB1 011621Z 16003KT 30/14 A3026 RMK A01 T02990139  RH  038%=      5-min Rain = 0
KSB1 011622Z 21003KT 30/14 A3026 RMK A01 T03000140  RH  038%=      5-min Rain = 0
KSB1 011623Z 24003KT 30/14 A3026 RMK A01 T02980137  RH  037%=      5-min Rain = 0
KSB1 011624Z 28002KT 30/14 A3026 RMK A01 T02960138  RH  038%=      5-min Rain = 0
KSB1 011625Z 29001KT 29/14 A3027 RMK A01 T02940136  RH  038%=      5-min Rain = 0
KSB1 011626Z 01000KT 29/14 A3026 RMK A01 T02930137  RH  038%=      5-min Rain = 0
KSB1 011627Z 04002KT 29/14 A3026 RMK A01 T02940138  RH  038%=      5-min Rain = 0
KSB1 011628Z 08003KT 30/14 A3026 RMK A01 T02960138  RH  038%=      5-min Rain = 0
KSB1 011629Z 19005KT 30/14 A3026 RMK A01 T02990136  RH  037%=      5-min Rain = 0
KSB1 011630Z 14007KT 30/14 A3027 RMK A01 T03000137  RH  037%=      5-min Rain = 0
KSB1 011631Z 12005KT 30/14 A3027 RMK A01 T03000135  RH  036%=      5-min Rain = 0
KSB1 011632Z 13005KT 30/14 A3027 RMK A01 T02990136  RH  037%=      5-min Rain = 0
KSB1 011633Z 13005KT 30/14 A3027 RMK A01 T02990135  RH  037%=      5-min Rain = 0
KSB1 011634Z 12003KT 30/13 A3027 RMK A01 T03010134  RH  036%=      5-min Rain = 0
KSB1 011635Z 16003KT 30/13 A3027 RMK A01 T03020133  RH  036%=      5-min Rain = 0
KSB1 011636Z 15003KT 30/13 A3027 RMK A01 T03020133  RH  035%=      5-min Rain = 0
KSB1 011637Z 13003KT 30/14 A3027 RMK A01 T03020135  RH  036%=      5-min Rain = 0
KSB1 011638Z 11003KT 30/13 A3027 RMK A01 T03010134  RH  036%=      5-min Rain = 0
KSB1 011639Z 09003KT 30/14 A3027 RMK A01 T03020137  RH  036%=      5-min Rain = 0
KSB1 011640Z 07002KT 30/14 A3027 RMK A01 T03020139  RH  037%=      5-min Rain = 0
KSB1 011641Z 13001KT 30/14 A3027 RMK A01 T03010139  RH  037%=      5-min Rain = 0
KSB1 011642Z 15004KT 30/14 A3027 RMK A01 T03020139  RH  037%=      5-min Rain = 0
KSB1 011643Z 14001KT 30/14 A3027 RMK A01 T03020138  RH  037%=      5-min Rain = 0
KSB1 011644Z 14003KT 30/14 A3027 RMK A01 T03010139  RH  037%=      5-min Rain = 0
KSB1 011645Z 13003KT 30/14 A3027 RMK A01 T02990138  RH  037%=      5-min Rain = 0
KSB1 011646Z 18005KT 30/14 A3027 RMK A01 T02990140  RH  038%=      5-min Rain = 0
KSB1 011647Z 17004KT 30/14 A3027 RMK A01 T02990140  RH  038%=      5-min Rain = 0
KSB1 011648Z 18005KT 30/14 A3027 RMK A01 T02990141  RH  038%=      5-min Rain = 0
KSB1 011649Z 17004KT 30/14 A3027 RMK A01 T03000140  RH  038%=      5-min Rain = 0
KSB1 011650Z 20002KT 30/14 A3027 RMK A01 T02990140  RH  038%=      5-min Rain = 0
KSB1 011651Z 18004KT 30/14 A3027 RMK A01 T02990140  RH  038%=      5-min Rain = 0
KSB1 011652Z 18004KT 30/14 A3027 RMK A01 T02990140  RH  038%=      5-min Rain = 0
KSB1 011653Z 17004KT 30/14 A3027 RMK A01 T02980139  RH  038%=      5-min Rain = 0
KSB1 011654Z 21001KT 30/14 A3027 RMK A01 T02970138  RH  038%=      5-min Rain = 0
KSB1 011655Z 22001KT 30/14 A3027 RMK A01 T02980139  RH  038%=      5-min Rain = 0
KSB1 011656Z 17001KT 30/14 A3027 RMK A01 T02990141  RH  038%=      5-min Rain = 0
KSB1 011657Z 22003KT 30/14 A3027 RMK A01 T03010140  RH  038%=      5-min Rain = 0
KSB1 011658Z 26001KT 30/14 A3027 RMK A01 T03010140  RH  038%=      5-min Rain = 0
KSB1 011659Z 31002KT 30/14 A3027 RMK A01 T03020140  RH  037%=      5-min Rain = 0
KSB1 011700Z 32001KT 31/14 A3027 RMK A01 T03050140  RH  037%=      5-min Rain = 0
KSB1 011701Z 15003KT 31/14 A3026 RMK A01 T03070141  RH  036%=      5-min Rain = 0
KSB1 011702Z 16003KT 31/14 A3026 RMK A01 T03090140  RH  036%=      5-min Rain = 0
KSB1 011703Z 17003KT 31/14 A3026 RMK A01 T03100139  RH  035%=      5-min Rain = 0
KSB1 011704Z 20005KT 31/14 A3026 RMK A01 T03070138  RH  036%=      5-min Rain = 0
KSB1 011705Z 18004KT 31/14 A3026 RMK A01 T03050138  RH  036%=      5-min Rain = 0
KSB1 011706Z 17003KT 31/14 A3026 RMK A01 T03050137  RH  036%=      5-min Rain = 0
KSB1 011707Z 22002KT 30/14 A3026 RMK A01 T03040138  RH  036%=      5-min Rain = 0
KSB1 011708Z 24002KT 30/14 A3026 RMK A01 T03040137  RH  036%=      5-min Rain = 0
KSB1 011709Z 25001KT 30/14 A3026 RMK A01 T03040137  RH  036%=      5-min Rain = 0
KSB1 011710Z 27001KT 30/14 A3026 RMK A01 T03040137  RH  036%=      5-min Rain = 0
KSB1 011711Z 32001KT 30/14 A3026 RMK A01 T03040138  RH  036%=      5-min Rain = 0
KSB1 011712Z 04002KT 30/14 A3026 RMK A01 T03040138  RH  036%=      5-min Rain = 0
KSB1 011713Z 08005KT 30/14 A3026 RMK A01 T03040138  RH  036%=      5-min Rain = 0
KSB1 011714Z 07006KT 31/14 A3026 RMK A01 T03070140  RH  036%=      5-min Rain = 0
KSB1 011715Z 11006G12KT 31/14 A3026 RMK A01 T03110141  RH  036%=      5-min Rain = 0
KSB1 011716Z 11006KT 31/14 A3026 RMK A01 T03120140  RH  035%=      5-min Rain = 0
KSB1 011717Z 10004KT 31/14 A3026 RMK A01 T03100138  RH  035%=      5-min Rain = 0
KSB1 011718Z 12006KT 31/14 A3026 RMK A01 T03080139  RH  036%=      5-min Rain = 0
KSB1 011719Z 12006KT 31/14 A3026 RMK A01 T03090139  RH  035%=      5-min Rain = 0
KSB1 011720Z 12006KT 31/14 A3026 RMK A01 T03110138  RH  035%=      5-min Rain = 0
KSB1 011721Z 12007KT 31/14 A3026 RMK A01 T03120138  RH  035%=      5-min Rain = 0
KSB1 011722Z 12006KT 31/14 A3026 RMK A01 T03120138  RH  035%=      5-min Rain = 0
KSB1 011723Z 11007KT 31/14 A3026 RMK A01 T03120138  RH  035%=      5-min Rain = 0
KSB1 011724Z 12008KT 31/14 A3026 RMK A01 T03130138  RH  035%=      5-min Rain = 0
KSB1 011725Z 13007KT 31/14 A3026 RMK A01 T03130138  RH  034%=      5-min Rain = 0
KSB1 011726Z 12007KT 31/14 A3026 RMK A01 T03120137  RH  034%=      5-min Rain = 0
KSB1 011727Z 13005KT 31/14 A3026 RMK A01 T03100135  RH  034%=      5-min Rain = 0
KSB1 011728Z 13005KT 31/13 A3026 RMK A01 T03060133  RH  035%=      5-min Rain = 0
KSB1 011729Z 14006KT 30/14 A3026 RMK A01 T03040135  RH  036%=      5-min Rain = 0
KSB1 011730Z 14004KT 30/14 A3026 RMK A01 T03040135  RH  036%=      5-min Rain = 0
KSB1 011731Z 15003KT 30/14 A3026 RMK A01 T03030135  RH  036%=      5-min Rain = 0
KSB1 011732Z 15002KT 30/14 A3026 RMK A01 T03030135  RH  036%=      5-min Rain = 0
KSB1 011733Z 15002KT 30/14 A3026 RMK A01 T03020135  RH  036%=      5-min Rain = 0
KSB1 011734Z 19002KT 30/13 A3026 RMK A01 T03020133  RH  036%=      5-min Rain = 0
KSB1 011735Z 21003KT 30/13 A3026 RMK A01 T03010134  RH  036%=      5-min Rain = 0
KSB1 011736Z 22003KT 30/13 A3026 RMK A01 T03010133  RH  036%=      5-min Rain = 0
KSB1 011737Z 24004KT 30/13 A3026 RMK A01 T03000134  RH  036%=      5-min Rain = 0
KSB1 011738Z 25004KT 30/13 A3026 RMK A01 T03020133  RH  036%=      5-min Rain = 0
KSB1 011739Z 25005KT 30/13 A3026 RMK A01 T03020134  RH  036%=      5-min Rain = 0
KSB1 011740Z 27005KT 30/13 A3025 RMK A01 T03020134  RH  036%=      5-min Rain = 0
KSB1 011741Z 28004KT 30/13 A3025 RMK A01 T03040134  RH  035%=      5-min Rain = 0
KSB1 011742Z 29005KT 30/13 A3025 RMK A01 T03040134  RH  035%=      5-min Rain = 0
KSB1 011743Z 27006KT 30/14 A3025 RMK A01 T03040135  RH  036%=      5-min Rain = 0
KSB1 011744Z 27006KT 30/13 A3025 RMK A01 T03040133  RH  035%=      5-min Rain = 0
KSB1 011745Z 27005KT 31/13 A3025 RMK A01 T03050132  RH  035%=      5-min Rain = 0
KSB1 011746Z 25003KT 30/13 A3025 RMK A01 T03020132  RH  035%=      5-min Rain = 0
KSB1 011747Z 24002KT 30/13 A3025 RMK A01 T03000132  RH  036%=      5-min Rain = 0
KSB1 011748Z 27003KT 30/13 A3025 RMK A01 T03020134  RH  036%=      5-min Rain = 0
KSB1 011749Z 26003KT 30/13 A3025 RMK A01 T03040134  RH  035%=      5-min Rain = 0
KSB1 011750Z 28002KT 30/13 A3025 RMK A01 T03040132  RH  035%=      5-min Rain = 0
KSB1 011751Z 28002KT 30/13 A3025 RMK A01 T03030131  RH  035%=      5-min Rain = 0
KSB1 011752Z 26004KT 31/13 A3025 RMK A01 T03050128  RH  034%=      5-min Rain = 0
KSB1 011753Z 21002KT 31/13 A3025 RMK A01 T03060132  RH  035%=      5-min Rain = 0
KSB1 011754Z 25004KT 31/13 A3025 RMK A01 T03100134  RH  034%=      5-min Rain = 0
KSB1 011755Z 25004KT 31/13 A3025 RMK A01 T03130132  RH  033%=      5-min Rain = 0
KSB1 011756Z 12004KT 32/13 A3025 RMK A01 T03160132  RH  033%=      5-min Rain = 0
KSB1 011757Z 08003KT 32/13 A3025 RMK A01 T03160133  RH  033%=      5-min Rain = 0
KSB1 011758Z 04004KT 32/14 A3025 RMK A01 T03170135  RH  033%=      5-min Rain = 0
KSB1 011759Z 06004KT 32/14 A3025 RMK A01 T03180135  RH  033%=      5-min Rain = 0
KSB1 011800Z 07006KT 32/13 A3025 RMK A01 T03190132  RH  032%=      5-min Rain = 0
KSB1 011801Z 05007KT 32/13 A3025 RMK A01 T03190133  RH  032%=      5-min Rain = 0
KSB1 011802Z 06006KT 32/13 A3025 RMK A01 T03160132  RH  033%=      5-min Rain = 0
KSB1 011803Z 06006KT 31/13 A3025 RMK A01 T03140132  RH  033%=      5-min Rain = 0
KSB1 011804Z 05006KT 31/13 A3025 RMK A01 T03130131  RH  033%=      5-min Rain = 0
KSB1 011805Z 04004KT 31/13 A3025 RMK A01 T03140130  RH  033%=      5-min Rain = 0
KSB1 011806Z 03004KT 31/13 A3025 RMK A01 T03120129  RH  033%=      5-min Rain = 0
KSB1 011807Z 03003KT 31/13 A3025 RMK A01 T03110128  RH  033%=      5-min Rain = 0
KSB1 011808Z 01004KT 31/13 A3025 RMK A01 T03110129  RH  033%=      5-min Rain = 0
KSB1 011809Z 02002KT 31/13 A3025 RMK A01 T03120128  RH  032%=      5-min Rain = 0
KSB1 011810Z 02002KT 31/13 A3025 RMK A01 T03120129  RH  033%=      5-min Rain = 0
KSB1 011811Z 34003KT 31/13 A3025 RMK A01 T03130130  RH  033%=      5-min Rain = 0
KSB1 011812Z 31003KT 31/13 A3024 RMK A01 T03140129  RH  032%=      5-min Rain = 0
KSB1 011813Z 33003KT 31/13 A3024 RMK A01 T03130129  RH  033%=      5-min Rain = 0
KSB1 011814Z 36001KT 31/13 A3024 RMK A01 T03120130  RH  033%=      5-min Rain = 0
KSB1 011815Z 33000KT 31/13 A3024 RMK A01 T03110130  RH  033%=      5-min Rain = 0
KSB1 011816Z 26001KT 31/13 A3024 RMK A01 T03120130  RH  033%=      5-min Rain = 0
KSB1 011817Z 25004KT 32/13 A3024 RMK A01 T03160133  RH  033%=      5-min Rain = 0
KSB1 011818Z 18006KT 32/13 A3024 RMK A01 T03190131  RH  032%=      5-min Rain = 0
KSB1 011819Z 17005KT 32/13 A3024 RMK A01 T03230128  RH  031%=      5-min Rain = 0
KSB1 011820Z 14004KT 32/13 A3024 RMK A01 T03240128  RH  030%=      5-min Rain = 0
KSB1 011821Z 14004KT 33/13 A3024 RMK A01 T03260127  RH  030%=      5-min Rain = 0
KSB1 011822Z 14002KT 32/12 A3024 RMK A01 T03240124  RH  030%=      5-min Rain = 0
KSB1 011823Z 14002KT 32/13 A3024 RMK A01 T03230125  RH  030%=      5-min Rain = 0
KSB1 011824Z 06003KT 32/13 A3024 RMK A01 T03240126  RH  030%=      5-min Rain = 0
KSB1 011825Z 10004KT 33/13 A3024 RMK A01 T03260127  RH  030%=      5-min Rain = 0
KSB1 011826Z 17004G9KT 32/13 A3024 RMK A01 T03240130  RH  031%=      5-min Rain = 0
KSB1 011827Z 18003KT 32/13 A3024 RMK A01 T03240132  RH  031%=      5-min Rain = 0
KSB1 011828Z 21006KT 33/13 A3023 RMK A01 T03260132  RH  031%=      5-min Rain = 0
KSB1 011829Z 22008KT 33/13 A3023 RMK A01 T03260132  RH  031%=      5-min Rain = 0
KSB1 011830Z 23007KT 32/13 A3023 RMK A01 T03240131  RH  031%=      5-min Rain = 0
KSB1 011831Z 24007KT 32/13 A3023 RMK A01 T03220132  RH  031%=      5-min Rain = 0
KSB1 011832Z 24004KT 32/13 A3023 RMK A01 T03230130  RH  031%=      5-min Rain = 0
KSB1 011833Z 23006KT 32/13 A3023 RMK A01 T03220130  RH  031%=      5-min Rain = 0
KSB1 011834Z 22007KT 33/13 A3023 RMK A01 T03270132  RH  030%=      5-min Rain = 0
KSB1 011835Z 23004KT 33/13 A3023 RMK A01 T03260125  RH  029%=      5-min Rain = 0
KSB1 011836Z 20003KT 32/13 A3023 RMK A01 T03230125  RH  030%=      5-min Rain = 0
KSB1 011837Z 16003KT 32/12 A3023 RMK A01 T03220124  RH  030%=      5-min Rain = 0
KSB1 011838Z 19003KT 32/13 A3023 RMK A01 T03210125  RH  030%=      5-min Rain = 0
KSB1 011839Z 20004KT 32/13 A3023 RMK A01 T03210125  RH  030%=      5-min Rain = 0
KSB1 011840Z 15003KT 32/12 A3023 RMK A01 T03200124  RH  030%=      5-min Rain = 0
KSB1 011841Z 09000KT 32/13 A3023 RMK A01 T03190125  RH  030%=      5-min Rain = 0
KSB1 011842Z 21001KT 32/13 A3023 RMK A01 T03200125  RH  030%=      5-min Rain = 0
KSB1 011843Z 18001KT 32/13 A3023 RMK A01 T03220126  RH  030%=      5-min Rain = 0
KSB1 011844Z 08004KT 33/12 A3023 RMK A01 T03260123  RH  029%=      5-min Rain = 0
KSB1 011845Z 08006KT 33/12 A3023 RMK A01 T03280117  RH  028%=      5-min Rain = 0
KSB1 011846Z 07007KT 33/12 A3023 RMK A01 T03280116  RH  027%=      5-min Rain = 0
KSB1 011847Z 07006KT 33/12 A3023 RMK A01 T03270116  RH  028%=      5-min Rain = 0
KSB1 011848Z 08004KT 33/12 A3023 RMK A01 T03270115  RH  027%=      5-min Rain = 0
KSB1 011849Z 13003KT 33/11 A3023 RMK A01 T03280113  RH  027%=      5-min Rain = 0
KSB1 011850Z 08006KT 33/11 A3023 RMK A01 T03280114  RH  027%=      5-min Rain = 0
KSB1 011851Z 10005KT 33/11 A3023 RMK A01 T03300114  RH  027%=      5-min Rain = 0
KSB1 011852Z 09005KT 33/11 A3023 RMK A01 T03270112  RH  027%=      5-min Rain = 0
KSB1 011853Z 08007KT 32/11 A3023 RMK A01 T03240111  RH  027%=      5-min Rain = 0
KSB1 011854Z 09006KT 32/11 A3023 RMK A01 T03240112  RH  027%=      5-min Rain = 0
KSB1 011855Z 09006KT 33/11 A3023 RMK A01 T03250112  RH  027%=      5-min Rain = 0
KSB1 011856Z 10006KT 33/11 A3023 RMK A01 T03260111  RH  027%=      5-min Rain = 0
KSB1 011857Z 12007KT 33/11 A3023 RMK A01 T03250111  RH  027%=      5-min Rain = 0
KSB1 011858Z 11007KT 32/11 A3023 RMK A01 T03220110  RH  027%=      5-min Rain = 0
KSB1 011859Z 08005KT 32/11 A3023 RMK A01 T03210112  RH  028%=      5-min Rain = 0
KSB1 011900Z 12005KT 32/11 A3022 RMK A01 T03220111  RH  027%=      5-min Rain = 0
KSB1 011901Z 16004KT 32/11 A3022 RMK A01 T03230110  RH  027%=      5-min Rain = 0
KSB1 011902Z 09004KT 32/11 A3022 RMK A01 T03220110  RH  027%=      5-min Rain = 0
KSB1 011903Z 08004KT 32/11 A3022 RMK A01 T03240112  RH  027%=      5-min Rain = 0
KSB1 011904Z 07008KT 33/11 A3022 RMK A01 T03290113  RH  027%=      5-min Rain = 0
KSB1 011905Z 08005KT 33/11 A3022 RMK A01 T03280112  RH  027%=      5-min Rain = 0
KSB1 011906Z 13002KT 33/11 A3022 RMK A01 T03280111  RH  027%=      5-min Rain = 0
KSB1 011907Z 13005KT 33/11 A3022 RMK A01 T03270109  RH  026%=      5-min Rain = 0
KSB1 011908Z 15003KT 33/11 A3022 RMK A01 T03250109  RH  027%=      5-min Rain = 0
KSB1 011909Z 16005KT 32/11 A3022 RMK A01 T03240110  RH  027%=      5-min Rain = 0
KSB1 011910Z 14006KT 33/11 A3022 RMK A01 T03260114  RH  027%=      5-min Rain = 0
KSB1 011911Z 16005KT 33/11 A3022 RMK A01 T03280114  RH  027%=      5-min Rain = 0
KSB1 011912Z 14004G9KT 33/12 A3022 RMK A01 T03300115  RH  027%=      5-min Rain = 0
KSB1 011913Z 09005KT 33/12 A3022 RMK A01 T03330116  RH  027%=      5-min Rain = 0
KSB1 011914Z 05008G13KT 34/11 A3022 RMK A01 T03360114  RH  026%=      5-min Rain = 0
KSB1 011915Z 04006KT 34/11 A3022 RMK A01 T03410109  RH  024%=      5-min Rain = 0
KSB1 011916Z 04009KT 34/10 A3022 RMK A01 T03440103  RH  023%=      5-min Rain = 0
KSB1 011917Z 05005KT 34/10 A3022 RMK A01 T03390101  RH  023%=      5-min Rain = 0
KSB1 011918Z 05002KT 34/10 A3022 RMK A01 T03350100  RH  024%=      5-min Rain = 0
KSB1 011919Z 04010KT 34/10 A3021 RMK A01 T03350102  RH  024%=      5-min Rain = 0
KSB1 011920Z 02008KT 34/10 A3021 RMK A01 T03360099  RH  023%=      5-min Rain = 0
KSB1 011921Z 02006KT 34/10 A3021 RMK A01 T03350098  RH  023%=      5-min Rain = 0
KSB1 011922Z 00005KT 33/10 A3021 RMK A01 T03340100  RH  024%=      5-min Rain = 0
KSB1 011923Z 03004KT 33/10 A3021 RMK A01 T03330101  RH  024%=      5-min Rain = 0
KSB1 011924Z 01002G7KT 33/10 A3021 RMK A01 T03290101  RH  025%=      5-min Rain = 0
KSB1 011925Z 34005KT 33/10 A3021 RMK A01 T03280102  RH  025%=      5-min Rain = 0
KSB1 011926Z 34005KT 33/10 A3021 RMK A01 T03290103  RH  025%=      5-min Rain = 0
KSB1 011927Z 02006KT 33/11 A3021 RMK A01 T03310105  RH  025%=      5-min Rain = 0
KSB1 011928Z 03011KT 33/11 A3021 RMK A01 T03320106  RH  025%=      5-min Rain = 0
KSB1 011929Z 01008KT 33/11 A3021 RMK A01 T03310105  RH  025%=      5-min Rain = 0
KSB1 011930Z 33005KT 33/11 A3021 RMK A01 T03260106  RH  026%=      5-min Rain = 0
KSB1 011931Z 01005KT 32/11 A3021 RMK A01 T03240107  RH  026%=      5-min Rain = 0
KSB1 011932Z 03008KT 33/11 A302 RMK A01 T03280108  RH  026%=      5-min Rain = 0
KSB1 011933Z 04005KT 33/11 A3021 RMK A01 T03300108  RH  026%=      5-min Rain = 0
KSB1 011934Z 03001KT 33/11 A302 RMK A01 T03300106  RH  025%=      5-min Rain = 0
KSB1 011935Z 00001KT 33/11 A302 RMK A01 T03290106  RH  026%=      5-min Rain = 0
KSB1 011936Z 02006KT 33/11 A302 RMK A01 T03310107  RH  025%=      5-min Rain = 0
KSB1 011937Z 36006KT 33/11 A302 RMK A01 T03340107  RH  025%=      5-min Rain = 0
KSB1 011938Z 35005KT 33/11 A302 RMK A01 T03340107  RH  025%=      5-min Rain = 0
KSB1 011939Z 35004KT 33/11 A302 RMK A01 T03330108  RH  025%=      5-min Rain = 0
KSB1 011940Z 34004KT 33/11 A302 RMK A01 T03330108  RH  025%=      5-min Rain = 0
KSB1 011941Z 33003KT 34/11 A302 RMK A01 T03350108  RH  025%=      5-min Rain = 0
KSB1 011942Z 32003KT 34/11 A302 RMK A01 T03370108  RH  025%=      5-min Rain = 0
KSB1 011943Z 26003KT 34/11 A302 RMK A01 T03370108  RH  025%=      5-min Rain = 0
KSB1 011944Z 21004KT 33/11 A302 RMK A01 T03330105  RH  025%=      5-min Rain = 0
KSB1 011945Z 21003KT 33/11 A3019 RMK A01 T03290105  RH  025%=      5-min Rain = 0
KSB1 011946Z 23002KT 33/11 A302 RMK A01 T03290105  RH  025%=      5-min Rain = 0
KSB1 011947Z 21002KT 33/11 A302 RMK A01 T03320107  RH  025%=      5-min Rain = 0
KSB1 011948Z 11003KT 33/11 A302 RMK A01 T03340107  RH  025%=      5-min Rain = 0
KSB1 011949Z 10002G7KT 34/11 A3019 RMK A01 T03350108  RH  025%=      5-min Rain = 0
KSB1 011950Z 10007KT 34/11 A3019 RMK A01 T03350112  RH  026%=      5-min Rain = 0
KSB1 011951Z 09007KT 34/11 A3019 RMK A01 T03360112  RH  025%=      5-min Rain = 0
KSB1 011952Z 06011KT 34/11 A3019 RMK A01 T03420113  RH  025%=      5-min Rain = 0
KSB1 011953Z 06009KT 34/11 A3019 RMK A01 T03440111  RH  024%=      5-min Rain = 0
KSB1 011954Z 08010KT 34/11 A3019 RMK A01 T03430110  RH  024%=      5-min Rain = 0
KSB1 011955Z 08007KT 34/11 A3019 RMK A01 T03370109  RH  025%=      5-min Rain = 0
KSB1 011956Z 06009KT 34/11 A3019 RMK A01 T03360109  RH  025%=      5-min Rain = 0
KSB1 011957Z 07007KT 33/11 A3019 RMK A01 T03340108  RH  025%=      5-min Rain = 0
KSB1 011958Z 10006KT 33/11 A3019 RMK A01 T03290106  RH  026%=      5-min Rain = 0
KSB1 011959Z 10008KT 33/11 A3019 RMK A01 T03270106  RH  026%=      5-min Rain = 0
KSB1 012000Z 11006KT 33/11 A3019 RMK A01 T03260106  RH  026%=      5-min Rain = 0
KSB1 012001Z 12006KT 33/11 A3019 RMK A01 T03260105  RH  026%=      5-min Rain = 0
KSB1 012002Z 13005KT 33/10 A3019 RMK A01 T03270103  RH  025%=      5-min Rain = 0
KSB1 012003Z 12007KT 33/10 A3019 RMK A01 T03270102  RH  025%=      5-min Rain = 0
KSB1 012004Z 12007KT 33/10 A3019 RMK A01 T03270102  RH  025%=      5-min Rain = 0
KSB1 012005Z 13007G13KT 33/10 A3019 RMK A01 T03270104  RH  025%=      5-min Rain = 0
KSB1 012006Z 09011KT 33/11 A3019 RMK A01 T03270105  RH  026%=      5-min Rain = 0
KSB1 012007Z 10008KT 33/11 A3019 RMK A01 T03280105  RH  026%=      5-min Rain = 0
KSB1 012008Z 08007KT 33/11 A3019 RMK A01 T03290105  RH  025%=      5-min Rain = 0
KSB1 012009Z 06005KT 33/11 A3019 RMK A01 T03300106  RH  025%=      5-min Rain = 0
KSB1 012010Z 11006KT 33/11 A3019 RMK A01 T03310106  RH  025%=      5-min Rain = 0
KSB1 012011Z 11007KT 33/10 A3019 RMK A01 T03320104  RH  025%=      5-min Rain = 0
KSB1 012012Z 15005KT 33/11 A3019 RMK A01 T03310106  RH  025%=      5-min Rain = 0
KSB1 012013Z 13006KT 33/11 A3019 RMK A01 T03300106  RH  025%=      5-min Rain = 0
KSB1 012014Z 10009G14KT 33/11 A3019 RMK A01 T03290108  RH  026%=      5-min Rain = 0
KSB1 012015Z 09014KT 33/11 A3019 RMK A01 T03290106  RH  025%=      5-min Rain = 0
KSB1 012016Z 12012G17KT 33/11 A3019 RMK A01 T03280106  RH  026%=      5-min Rain = 0
KSB1 012017Z 12014KT 33/11 A3019 RMK A01 T03300105  RH  025%=      5-min Rain = 0
KSB1 012018Z 12012KT 33/11 A3019 RMK A01 T03290105  RH  025%=      5-min Rain = 0
KSB1 012019Z 11013G18KT 33/11 A3019 RMK A01 T03270107  RH  026%=      5-min Rain = 0
KSB1 012020Z 11015KT 33/11 A3018 RMK A01 T03260112  RH  027%=      5-min Rain = 0
KSB1 012021Z 10015KT 33/12 A3018 RMK A01 T03250115  RH  028%=      5-min Rain = 0
KSB1 012022Z 10019KT 32/11 A3018 RMK A01 T03240114  RH  028%=      5-min Rain = 0
KSB1 012023Z 11016G21KT 32/11 A3018 RMK A01 T03220113  RH  028%=      5-min Rain = 0
KSB1 012024Z 10016KT 32/11 A3018 RMK A01 T03190113  RH  028%=      5-min Rain = 0
KSB1 012025Z 10016KT 32/11 A3018 RMK A01 T03180113  RH  028%=      5-min Rain = 0
KSB1 012026Z 12016KT 32/11 A3018 RMK A01 T03180113  RH  028%=      5-min Rain = 0
KSB1 012027Z 11015KT 32/11 A3018 RMK A01 T03180112  RH  028%=      5-min Rain = 0
KSB1 012028Z 12017KT 32/11 A3018 RMK A01 T03190111  RH  028%=      5-min Rain = 0
KSB1 012029Z 12016KT 32/11 A3018 RMK A01 T03190113  RH  028%=      5-min Rain = 0
KSB1 012030Z 13015KT 32/11 A3018 RMK A01 T03180112  RH  028%=      5-min Rain = 0
KSB1 012031Z 13013KT 32/11 A3018 RMK A01 T03180110  RH  028%=      5-min Rain = 0
KSB1 012032Z 12011KT 32/11 A3018 RMK A01 T03180112  RH  028%=      5-min Rain = 0
KSB1 012033Z 11013KT 32/12 A3018 RMK A01 T03240115  RH  028%=      5-min Rain = 0
KSB1 012034Z 12011KT 33/11 A3018 RMK A01 T03260113  RH  027%=      5-min Rain = 0
KSB1 012035Z 11012G17KT 33/11 A3018 RMK A01 T03260112  RH  027%=      5-min Rain = 0
KSB1 012036Z 11014KT 33/11 A3018 RMK A01 T03250112  RH  027%=      5-min Rain = 0
KSB1 012037Z 11012KT 32/11 A3018 RMK A01 T03220113  RH  028%=      5-min Rain = 0
KSB1 012038Z 11011KT 32/11 A3019 RMK A01 T03220113  RH  028%=      5-min Rain = 0
KSB1 012039Z 10013G18KT 32/11 A3018 RMK A01 T03220110  RH  027%=      5-min Rain = 0
KSB1 012040Z 11010KT 32/11 A3019 RMK A01 T03190111  RH  028%=      5-min Rain = 0
KSB1 012041Z 12010KT 32/11 A3019 RMK A01 T03210113  RH  028%=      5-min Rain = 0
KSB1 012042Z 10010G15KT 33/11 A3018 RMK A01 T03250112  RH  027%=      5-min Rain = 0
KSB1 012043Z 13012KT 33/11 A3018 RMK A01 T03260110  RH  027%=      5-min Rain = 0
KSB1 012044Z 14012KT 33/11 A3018 RMK A01 T03250108  RH  026%=      5-min Rain = 0
KSB1 012045Z 12009KT 32/11 A3018 RMK A01 T03240109  RH  027%=      5-min Rain = 0
KSB1 012046Z 11009KT 33/11 A3018 RMK A01 T03260110  RH  027%=      5-min Rain = 0
KSB1 012047Z 10010KT 33/11 A3019 RMK A01 T03260110  RH  027%=      5-min Rain = 0
KSB1 012048Z 10010KT 32/11 A3019 RMK A01 T03230106  RH  026%=      5-min Rain = 0
KSB1 012049Z 10008KT 32/11 A3019 RMK A01 T03200107  RH  027%=      5-min Rain = 0
KSB1 012050Z 09012KT 32/11 A3018 RMK A01 T03200107  RH  027%=      5-min Rain = 0
KSB1 012051Z 09009KT 32/11 A3019 RMK A01 T03190107  RH  027%=      5-min Rain = 0
KSB1 012052Z 09008KT 32/11 A3019 RMK A01 T03190107  RH  027%=      5-min Rain = 0
KSB1 012053Z 08008KT 32/11 A3018 RMK A01 T03200107  RH  027%=      5-min Rain = 0
KSB1 012054Z 09011KT 32/11 A3018 RMK A01 T03200107  RH  027%=      5-min Rain = 0
KSB1 012055Z 10010KT 32/11 A3018 RMK A01 T03190107  RH  027%=      5-min Rain = 0
KSB1 012056Z 10011KT 32/11 A3018 RMK A01 T03200108  RH  027%=      5-min Rain = 0
KSB1 012057Z 10008KT 32/11 A3018 RMK A01 T03200107  RH  027%=      5-min Rain = 0
KSB1 012058Z 09010KT 32/11 A3018 RMK A01 T03200108  RH  027%=      5-min Rain = 0
KSB1 012059Z 10008KT 32/11 A3018 RMK A01 T03210108  RH  027%=      5-min Rain = 0
KSB1 012100Z 10008KT 32/11 A3018 RMK A01 T03210107  RH  027%=      5-min Rain = 0
KSB1 012101Z 08008KT 32/11 A3018 RMK A01 T03210108  RH  027%=      5-min Rain = 0
KSB1 012102Z 08010KT 32/11 A3018 RMK A01 T03220108  RH  027%=      5-min Rain = 0
KSB1 012103Z 08008KT 32/11 A3018 RMK A01 T03210107  RH  027%=      5-min Rain = 0
KSB1 012104Z 07007KT 32/11 A3018 RMK A01 T03200108  RH  027%=      5-min Rain = 0
KSB1 012105Z 05007KT 32/11 A3018 RMK A01 T03200109  RH  027%=      5-min Rain = 0
KSB1 012106Z 10008KT 32/11 A3018 RMK A01 T03210108  RH  027%=      5-min Rain = 0
KSB1 012107Z 11006KT 32/11 A3018 RMK A01 T03200107  RH  027%=      5-min Rain = 0
KSB1 012108Z 07005KT 32/11 A3019 RMK A01 T03180108  RH  027%=      5-min Rain = 0
KSB1 012109Z 05005KT 32/11 A3019 RMK A01 T03190109  RH  028%=      5-min Rain = 0
KSB1 012110Z 05006KT 32/11 A3019 RMK A01 T03200108  RH  027%=      5-min Rain = 0
KSB1 012111Z 05005KT 32/11 A3019 RMK A01 T03200108  RH  027%=      5-min Rain = 0
KSB1 012112Z 08005KT 32/11 A3019 RMK A01 T03190108  RH  027%=      5-min Rain = 0
KSB1 012113Z 10004KT 32/11 A3019 RMK A01 T03180108  RH  027%=      5-min Rain = 0
KSB1 012114Z 10004KT 32/11 A3019 RMK A01 T03180107  RH  027%=      5-min Rain = 0
KSB1 012115Z 10007KT 32/11 A3018 RMK A01 T03180107  RH  027%=      5-min Rain = 0
KSB1 012116Z 10006KT 32/11 A3018 RMK A01 T03170106  RH  027%=      5-min Rain = 0
KSB1 012117Z 11004KT 32/11 A3018 RMK A01 T03170107  RH  027%=      5-min Rain = 0
KSB1 012118Z 13005KT 32/11 A3018 RMK A01 T03170107  RH  027%=      5-min Rain = 0
KSB1 012119Z 12004KT 32/11 A3018 RMK A01 T03170106  RH  027%=      5-min Rain = 0
KSB1 012120Z 11001KT 32/11 A3018 RMK A01 T03170105  RH  027%=      5-min Rain = 0
KSB1 012121Z 11002KT 32/11 A3018 RMK A01 T03170105  RH  027%=      5-min Rain = 0
KSB1 012122Z 10002KT 32/11 A3018 RMK A01 T03170106  RH  027%=      5-min Rain = 0
KSB1 012123Z 10004KT 32/11 A3018 RMK A01 T03170107  RH  027%=      5-min Rain = 0
KSB1 012124Z 10004KT 32/11 A3018 RMK A01 T03190108  RH  027%=      5-min Rain = 0
KSB1 012125Z 09004KT 32/11 A3018 RMK A01 T03190107  RH  027%=      5-min Rain = 0
KSB1 012126Z 10002KT 32/11 A3018 RMK A01 T03190109  RH  028%=      5-min Rain = 0
KSB1 012127Z 08002KT 32/11 A3018 RMK A01 T03210108  RH  027%=      5-min Rain = 0
KSB1 012128Z 12005KT 32/11 A3018 RMK A01 T03210108  RH  027%=      5-min Rain = 0
KSB1 012129Z 13005KT 32/11 A3017 RMK A01 T03210107  RH  027%=      5-min Rain = 0
KSB1 012130Z 14006KT 32/11 A3017 RMK A01 T03210107  RH  027%=      5-min Rain = 0
KSB1 012131Z 14003KT 32/11 A3017 RMK A01 T03200106  RH  027%=      5-min Rain = 0
KSB1 012132Z 13003KT 32/11 A3017 RMK A01 T03200106  RH  027%=      5-min Rain = 0
KSB1 012133Z 16002KT 32/11 A3017 RMK A01 T03190106  RH  027%=      5-min Rain = 0
KSB1 012134Z 19000KT 32/11 A3017 RMK A01 T03190107  RH  027%=      5-min Rain = 0
KSB1 012135Z 21001KT 32/11 A3017 RMK A01 T03190106  RH  027%=      5-min Rain = 0
KSB1 012136Z 23001KT 32/11 A3017 RMK A01 T03200108  RH  027%=      5-min Rain = 0
KSB1 012137Z 24000KT 32/11 A3017 RMK A01 T03210107  RH  027%=      5-min Rain = 0
KSB1 012138Z 34001KT 32/11 A3017 RMK A01 T03210106  RH  027%=      5-min Rain = 0
KSB1 012139Z 36001KT 32/11 A3017 RMK A01 T03210108  RH  027%=      5-min Rain = 0
KSB1 012140Z 32003KT 32/11 A3017 RMK A01 T03220108  RH  027%=      5-min Rain = 0
KSB1 012141Z 31003KT 32/11 A3017 RMK A01 T03220108  RH  027%=      5-min Rain = 0
KSB1 012142Z 32003KT 32/11 A3017 RMK A01 T03220108  RH  027%=      5-min Rain = 0
KSB1 012143Z 35004KT 32/11 A3017 RMK A01 T03220108  RH  027%=      5-min Rain = 0
KSB1 012144Z 35003KT 32/11 A3017 RMK A01 T03210107  RH  027%=      5-min Rain = 0
KSB1 012145Z 35003KT 32/11 A3017 RMK A01 T03210108  RH  027%=      5-min Rain = 0
KSB1 012146Z 02004KT 32/11 A3017 RMK A01 T03200109  RH  027%=      5-min Rain = 0
KSB1 012147Z 02006KT 32/11 A3017 RMK A01 T03210109  RH  027%=      5-min Rain = 0
KSB1 012148Z 02007G12KT 32/11 A3017 RMK A01 T03220110  RH  027%=      5-min Rain = 0
KSB1 012149Z 00007KT 32/11 A3017 RMK A01 T03230114  RH  028%=      5-min Rain = 0
KSB1 012150Z 35010KT 32/12 A3017 RMK A01 T03200115  RH  029%=      5-min Rain = 0
KSB1 012151Z 35012KT 32/12 A3017 RMK A01 T03180116  RH  029%=      5-min Rain = 0
KSB1 012152Z 36009KT 32/12 A3017 RMK A01 T03170116  RH  029%=      5-min Rain = 0
KSB1 012153Z 01008KT 32/12 A3017 RMK A01 T03150117  RH  030%=      5-min Rain = 0
KSB1 012154Z 36006KT 32/12 A3017 RMK A01 T03150117  RH  030%=      5-min Rain = 0
KSB1 012155Z 36007KT 31/12 A3017 RMK A01 T03140118  RH  030%=      5-min Rain = 0
KSB1 012156Z 36009G14KT 31/12 A3017 RMK A01 T03140118  RH  030%=      5-min Rain = 0
KSB1 012157Z 36011KT 32/11 A3017 RMK A01 T03160114  RH  029%=      5-min Rain = 0
KSB1 012158Z 35012KT 32/11 A3017 RMK A01 T03180112  RH  028%=      5-min Rain = 0
KSB1 012159Z 34015KT 32/12 A3016 RMK A01 T03180115  RH  029%=      5-min Rain = 0
KSB1 012200Z 35012KT 32/12 A3017 RMK A01 T03160116  RH  029%=      5-min Rain = 0
KSB1 012201Z 35010KT 32/12 A3016 RMK A01 T03150117  RH  030%=      5-min Rain = 0
KSB1 012202Z 34011KT 32/12 A3016 RMK A01 T03150118  RH  030%=      5-min Rain = 0
KSB1 012203Z 35008KT 31/12 A3016 RMK A01 T03140117  RH  030%=      5-min Rain = 0
KSB1 012204Z 34012KT 32/12 A3016 RMK A01 T03150118  RH  030%=      5-min Rain = 0
KSB1 012205Z 34011KT 32/12 A3016 RMK A01 T03150117  RH  030%=      5-min Rain = 0
KSB1 012206Z 34011KT 32/12 A3016 RMK A01 T03150117  RH  030%=      5-min Rain = 0
KSB1 012207Z 34011KT 32/12 A3016 RMK A01 T03150117  RH  030%=      5-min Rain = 0
KSB1 012208Z 35011KT 32/12 A3016 RMK A01 T03150116  RH  030%=      5-min Rain = 0
KSB1 012209Z 35011KT 32/12 A3016 RMK A01 T03160116  RH  029%=      5-min Rain = 0
KSB1 012210Z 35009KT 32/12 A3016 RMK A01 T03160116  RH  029%=      5-min Rain = 0
KSB1 012211Z 33008KT 32/12 A3016 RMK A01 T03160116  RH  029%=      5-min Rain = 0
KSB1 012212Z 32009KT 32/12 A3016 RMK A01 T03170115  RH  029%=      5-min Rain = 0
KSB1 012213Z 35010KT 32/12 A3016 RMK A01 T03170115  RH  029%=      5-min Rain = 0
KSB1 012214Z 34011KT 32/11 A3016 RMK A01 T03170112  RH  028%=      5-min Rain = 0
KSB1 012215Z 35009KT 32/11 A3016 RMK A01 T03170111  RH  028%=      5-min Rain = 0
KSB1 012216Z 34009KT 32/11 A3016 RMK A01 T03170111  RH  028%=      5-min Rain = 0
KSB1 012217Z 34012KT 32/11 A3016 RMK A01 T03170110  RH  028%=      5-min Rain = 0
KSB1 012218Z 35011KT 32/11 A3015 RMK A01 T03180110  RH  028%=      5-min Rain = 0
KSB1 012219Z 35008KT 32/11 A3015 RMK A01 T03180109  RH  028%=      5-min Rain = 0
KSB1 012220Z 33008KT 32/11 A3015 RMK A01 T03170108  RH  028%=      5-min Rain = 0
KSB1 012221Z 31009KT 32/10 A3015 RMK A01 T03170104  RH  027%=      5-min Rain = 0
KSB1 012222Z 31010KT 32/10 A3015 RMK A01 T03170102  RH  027%=      5-min Rain = 0
KSB1 012223Z 31008KT 32/10 A3015 RMK A01 T03170102  RH  027%=      5-min Rain = 0
KSB1 012224Z 31009KT 32/10 A3015 RMK A01 T03160101  RH  027%=      5-min Rain = 0
KSB1 012225Z 31009KT 32/10 A3015 RMK A01 T03160102  RH  027%=      5-min Rain = 0
KSB1 012226Z 32010KT 32/10 A3015 RMK A01 T03170104  RH  027%=      5-min Rain = 0
KSB1 012227Z 31008KT 32/10 A3015 RMK A01 T03170103  RH  027%=      5-min Rain = 0
KSB1 012228Z 32006KT 32/11 A3014 RMK A01 T03180105  RH  027%=      5-min Rain = 0
KSB1 012229Z 32006KT 32/11 A3014 RMK A01 T03180107  RH  027%=      5-min Rain = 0
KSB1 012230Z 30008KT 32/11 A3014 RMK A01 T03200107  RH  027%=      5-min Rain = 0
KSB1 012231Z 32007KT 32/11 A3014 RMK A01 T03210106  RH  027%=      5-min Rain = 0
KSB1 012232Z 31005KT 32/11 A3014 RMK A01 T03210105  RH  027%=      5-min Rain = 0
KSB1 012233Z 31008KT 32/11 A3014 RMK A01 T03210105  RH  026%=      5-min Rain = 0
KSB1 012234Z 31007KT 32/10 A3014 RMK A01 T03220103  RH  026%=      5-min Rain = 0
KSB1 012235Z 30009KT 32/10 A3014 RMK A01 T03220103  RH  026%=      5-min Rain = 0
KSB1 012236Z 30008KT 32/10 A3014 RMK A01 T03220104  RH  026%=      5-min Rain = 0
KSB1 012237Z 30009KT 32/10 A3014 RMK A01 T03220104  RH  026%=      5-min Rain = 0
KSB1 012238Z 31007KT 32/10 A3014 RMK A01 T03220103  RH  026%=      5-min Rain = 0
KSB1 012239Z 31008KT 32/10 A3014 RMK A01 T03220104  RH  026%=      5-min Rain = 0
KSB1 012240Z 32007KT 32/10 A3014 RMK A01 T03220104  RH  026%=      5-min Rain = 0
KSB1 012241Z 31007KT 32/11 A3014 RMK A01 T03210106  RH  027%=      5-min Rain = 0
KSB1 012242Z 33006KT 32/10 A3014 RMK A01 T03210103  RH  026%=      5-min Rain = 0
KSB1 012243Z 31004KT 32/10 A3014 RMK A01 T03210100  RH  026%=      5-min Rain = 0
KSB1 012244Z 31004KT 32/10 A3014 RMK A01 T03200101  RH  026%=      5-min Rain = 0
KSB1 012245Z 30006KT 32/10 A3014 RMK A01 T03200103  RH  026%=      5-min Rain = 0
KSB1 012246Z 32006KT 32/10 A3014 RMK A01 T03240103  RH  026%=      5-min Rain = 0
KSB1 012247Z 30006KT 33/10 A3014 RMK A01 T03250104  RH  026%=      5-min Rain = 0
KSB1 012248Z 31007KT 33/11 A3014 RMK A01 T03250107  RH  026%=      5-min Rain = 0
KSB1 012249Z 33007KT 33/11 A3014 RMK A01 T03270105  RH  026%=      5-min Rain = 0
KSB1 012250Z 31007KT 33/11 A3014 RMK A01 T03280105  RH  025%=      5-min Rain = 0
KSB1 012251Z 32005KT 33/10 A3014 RMK A01 T03270103  RH  025%=      5-min Rain = 0
KSB1 012252Z 30004KT 33/10 A3014 RMK A01 T03260104  RH  026%=      5-min Rain = 0
KSB1 012253Z 33005KT 33/11 A3014 RMK A01 T03270105  RH  026%=      5-min Rain = 0
KSB1 012254Z 33005KT 33/11 A3014 RMK A01 T03290109  RH  026%=      5-min Rain = 0
KSB1 012255Z 31005KT 33/11 A3015 RMK A01 T03320107  RH  025%=      5-min Rain = 0
KSB1 012256Z 30004KT 33/11 A3015 RMK A01 T03310106  RH  025%=      5-min Rain = 0
KSB1 012257Z 32003KT 33/11 A3014 RMK A01 T03290107  RH  026%=      5-min Rain = 0
KSB1 012258Z 00007KT 33/11 A3014 RMK A01 T03290108  RH  026%=      5-min Rain = 0
KSB1 012259Z 03008KT 33/11 A3014 RMK A01 T03300107  RH  026%=      5-min Rain = 0
KSB1 012300Z 02007KT 33/11 A3014 RMK A01 T03300107  RH  025%=      5-min Rain = 0
KSB1 012301Z 03005KT 33/11 A3015 RMK A01 T03300108  RH  026%=      5-min Rain = 0
KSB1 012302Z 02004KT 33/11 A3015 RMK A01 T03310109  RH  026%=      5-min Rain = 0
KSB1 012303Z 35003G8KT 33/11 A3015 RMK A01 T03320107  RH  025%=      5-min Rain = 0
KSB1 012304Z 00006KT 33/11 A3015 RMK A01 T03330108  RH  025%=      5-min Rain = 0
KSB1 012305Z 02005KT 33/11 A3015 RMK A01 T03300108  RH  026%=      5-min Rain = 0
KSB1 012306Z 03007KT 33/11 A3015 RMK A01 T03290108  RH  026%=      5-min Rain = 0
KSB1 012307Z 04007KT 33/11 A3015 RMK A01 T03280106  RH  026%=      5-min Rain = 0
KSB1 012308Z 04008KT 33/11 A3015 RMK A01 T03270106  RH  026%=      5-min Rain = 0
KSB1 012309Z 03008KT 33/11 A3015 RMK A01 T03270105  RH  026%=      5-min Rain = 0
KSB1 012310Z 04006KT 33/10 A3015 RMK A01 T03260104  RH  026%=      5-min Rain = 0
KSB1 012311Z 02009KT 33/11 A3015 RMK A01 T03270105  RH  026%=      5-min Rain = 0
KSB1 012312Z 02006KT 33/11 A3015 RMK A01 T03270106  RH  026%=      5-min Rain = 0
KSB1 012313Z 00005KT 33/11 A3015 RMK A01 T03270106  RH  026%=      5-min Rain = 0
KSB1 012314Z 35003KT 33/11 A3015 RMK A01 T03260105  RH  026%=      5-min Rain = 0
KSB1 012315Z 35002KT 33/11 A3015 RMK A01 T03260106  RH  026%=      5-min Rain = 0
KSB1 012316Z 34003KT 33/11 A3015 RMK A01 T03260107  RH  026%=      5-min Rain = 0
KSB1 012317Z 04002KT 33/11 A3015 RMK A01 T03270105  RH  026%=      5-min Rain = 0
KSB1 012318Z 06002KT 33/11 A3015 RMK A01 T03270106  RH  026%=      5-min Rain = 0
KSB1 012319Z 09000KT 33/11 A3015 RMK A01 T03250105  RH  026%=      5-min Rain = 0
KSB1 012320Z 04001KT 33/10 A3015 RMK A01 T03250103  RH  026%=      5-min Rain = 0
KSB1 012321Z 02004KT 33/11 A3014 RMK A01 T03250105  RH  026%=      5-min Rain = 0
KSB1 012322Z 02004KT 33/11 A3014 RMK A01 T03260105  RH  026%=      5-min Rain = 0
KSB1 012323Z 03008KT 33/11 A3014 RMK A01 T03250105  RH  026%=      5-min Rain = 0
KSB1 012324Z 07006KT 33/11 A3014 RMK A01 T03260107  RH  026%=      5-min Rain = 0
KSB1 012325Z 08007KT 33/11 A3014 RMK A01 T03280107  RH  026%=      5-min Rain = 0
KSB1 012326Z 08008KT 33/11 A3014 RMK A01 T03280107  RH  026%=      5-min Rain = 0
KSB1 012327Z 09007KT 33/11 A3014 RMK A01 T03270107  RH  026%=      5-min Rain = 0
KSB1 012328Z 10007KT 33/11 A3014 RMK A01 T03260106  RH  026%=      5-min Rain = 0
KSB1 012329Z 11006KT 33/11 A3014 RMK A01 T03250106  RH  026%=      5-min Rain = 0
KSB1 012330Z 10004KT 32/10 A3014 RMK A01 T03240104  RH  026%=      5-min Rain = 0
KSB1 012331Z 10004KT 32/11 A3014 RMK A01 T03230105  RH  026%=      5-min Rain = 0
KSB1 012332Z 11004KT 32/10 A3014 RMK A01 T03230104  RH  026%=      5-min Rain = 0
KSB1 012333Z 11004KT 32/10 A3014 RMK A01 T03230103  RH  026%=      5-min Rain = 0
KSB1 012334Z 12003KT 32/10 A3014 RMK A01 T03230101  RH  026%=      5-min Rain = 0
KSB1 012335Z 12001KT 32/10 A3014 RMK A01 T03220102  RH  026%=      5-min Rain = 0
KSB1 012336Z 11001KT 32/10 A3014 RMK A01 T03210102  RH  026%=      5-min Rain = 0
KSB1 012337Z 11005KT 32/10 A3014 RMK A01 T03210101  RH  026%=      5-min Rain = 0
KSB1 012338Z 10005KT 32/10 A3014 RMK A01 T03220103  RH  026%=      5-min Rain = 0
KSB1 012339Z 11007KT 32/10 A3014 RMK A01 T03230101  RH  026%=      5-min Rain = 0
KSB1 012340Z 11006KT 32/10 A3014 RMK A01 T03230101  RH  026%=      5-min Rain = 0
KSB1 012341Z 10005KT 32/10 A3014 RMK A01 T03220101  RH  026%=      5-min Rain = 0
KSB1 012342Z 11004KT 32/10 A3014 RMK A01 T03220101  RH  026%=      5-min Rain = 0
KSB1 012343Z 12004KT 32/10 A3014 RMK A01 T03220099  RH  025%=      5-min Rain = 0
KSB1 012344Z 10005KT 32/10 A3014 RMK A01 T03210099  RH  025%=      5-min Rain = 0
KSB1 012345Z 09005KT 32/10 A3014 RMK A01 T03210095  RH  025%=      5-min Rain = 0
KSB1 012346Z 08006KT 32/10 A3014 RMK A01 T03210095  RH  025%=      5-min Rain = 0
KSB1 012347Z 08006KT 32/09 A3014 RMK A01 T03220093  RH  024%=      5-min Rain = 0
KSB1 012348Z 08006KT 32/09 A3014 RMK A01 T03220093  RH  024%=      5-min Rain = 0
KSB1 012349Z 08005KT 32/10 A3014 RMK A01 T03230095  RH  025%=      5-min Rain = 0
KSB1 012350Z 08006KT 32/10 A3014 RMK A01 T03230096  RH  025%=      5-min Rain = 0
KSB1 012351Z 09007KT 32/10 A3014 RMK A01 T03230096  RH  025%=      5-min Rain = 0
KSB1 012352Z 08007KT 32/10 A3014 RMK A01 T03220097  RH  025%=      5-min Rain = 0
KSB1 012353Z 10009KT 32/11 A3014 RMK A01 T03230105  RH  026%=      5-min Rain = 0
KSB1 012354Z 10008KT 32/11 A3014 RMK A01 T03210113  RH  028%=      5-min Rain = 0
KSB1 012355Z 08008KT 32/11 A3014 RMK A01 T03180113  RH  028%=      5-min Rain = 0
KSB1 012356Z 08008KT 32/11 A3013 RMK A01 T03170113  RH  029%=      5-min Rain = 0
KSB1 012357Z 10007KT 32/11 A3013 RMK A01 T03160113  RH  029%=      5-min Rain = 0
KSB1 012358Z 10008KT 32/11 A3013 RMK A01 T03180113  RH  029%=      5-min Rain = 0
KSB1 012359Z 11008KT 32/11 A3013 RMK A01 T03190110  RH  028%=      5-min Rain = 0
KSB1 020000Z 11011KT 32/11 A3013 RMK A01 T03190110  RH  028%=      5-min Rain = 0
KSB1 020001Z 11011KT 32/11 A3013 RMK A01 T03190108  RH  027%=      5-min Rain = 0
KSB1 020002Z 11010KT 32/11 A3013 RMK A01 T03180107  RH  027%=      5-min Rain = 0
KSB1 020003Z 10008KT 32/11 A3014 RMK A01 T03170105  RH  027%=      5-min Rain = 0
KSB1 020004Z 11008KT 32/11 A3014 RMK A01 T03170107  RH  027%=      5-min Rain = 0
KSB1 020005Z 11007KT 32/11 A3014 RMK A01 T03170107  RH  028%=      5-min Rain = 0
KSB1 020006Z 11005KT 32/11 A3014 RMK A01 T03170107  RH  028%=      5-min Rain = 0
KSB1 020007Z 12004KT 32/11 A3014 RMK A01 T03160106  RH  027%=      5-min Rain = 0
KSB1 020008Z 12005KT 32/11 A3014 RMK A01 T03160106  RH  028%=      5-min Rain = 0
KSB1 020009Z 12005KT 32/11 A3014 RMK A01 T03160107  RH  028%=      5-min Rain = 0
KSB1 020010Z 10004KT 32/11 A3014 RMK A01 T03170107  RH  028%=      5-min Rain = 0
KSB1 020011Z 11005KT 32/11 A3014 RMK A01 T03170107  RH  027%=      5-min Rain = 0
KSB1 020012Z 11006KT 32/11 A3014 RMK A01 T03170107  RH  027%=      5-min Rain = 0
KSB1 020013Z 11006KT 32/11 A3013 RMK A01 T03170107  RH  028%=      5-min Rain = 0
KSB1 020014Z 11006KT 32/11 A3013 RMK A01 T03170107  RH  027%=      5-min Rain = 0
KSB1 020015Z 11007KT 32/11 A3013 RMK A01 T03180106  RH  027%=      5-min Rain = 0
KSB1 020016Z 11006KT 32/11 A3013 RMK A01 T03180106  RH  027%=      5-min Rain = 0
KSB1 020017Z 12007KT 32/11 A3013 RMK A01 T03180106  RH  027%=      5-min Rain = 0
KSB1 020018Z 12008KT 32/11 A3013 RMK A01 T03180105  RH  027%=      5-min Rain = 0
KSB1 020019Z 12007KT 32/11 A3014 RMK A01 T03180105  RH  027%=      5-min Rain = 0
KSB1 020020Z 12006KT 32/11 A3014 RMK A01 T03180105  RH  027%=      5-min Rain = 0
KSB1 020021Z 12005KT 32/11 A3014 RMK A01 T03180105  RH  027%=      5-min Rain = 0
KSB1 020022Z 12006KT 32/11 A3014 RMK A01 T03200105  RH  027%=      5-min Rain = 0
KSB1 020023Z 12005KT 32/11 A3014 RMK A01 T03190105  RH  027%=      5-min Rain = 0
KSB1 020024Z 11006KT 32/11 A3014 RMK A01 T03190106  RH  027%=      5-min Rain = 0
KSB1 020025Z 11006KT 32/11 A3014 RMK A01 T03210106  RH  027%=      5-min Rain = 0
KSB1 020026Z 10006KT 32/11 A3014 RMK A01 T03220106  RH  027%=      5-min Rain = 0
KSB1 020027Z 11005KT 32/11 A3014 RMK A01 T03220105  RH  026%=      5-min Rain = 0
KSB1 020028Z 10007KT 32/11 A3014 RMK A01 T03210106  RH  027%=      5-min Rain = 0
KSB1 020029Z 10005KT 32/11 A3014 RMK A01 T03210106  RH  027%=      5-min Rain = 0
KSB1 020030Z 10006KT 32/11 A3014 RMK A01 T03210106  RH  027%=      5-min Rain = 0
KSB1 020031Z 11006KT 32/11 A3014 RMK A01 T03200106  RH  027%=      5-min Rain = 0
KSB1 020032Z 11008KT 32/11 A3014 RMK A01 T03200107  RH  027%=      5-min Rain = 0
KSB1 020033Z 10008KT 32/11 A3014 RMK A01 T03190107  RH  027%=      5-min Rain = 0
KSB1 020034Z 09007KT 32/11 A3014 RMK A01 T03180108  RH  027%=      5-min Rain = 0
KSB1 020035Z 09006KT 32/11 A3014 RMK A01 T03170108  RH  028%=      5-min Rain = 0
KSB1 020036Z 09006KT 32/11 A3014 RMK A01 T03170107  RH  027%=      5-min Rain = 0
KSB1 020037Z 09005KT 32/11 A3014 RMK A01 T03170107  RH  028%=      5-min Rain = 0
KSB1 020038Z 09004KT 32/11 A3014 RMK A01 T03170107  RH  027%=      5-min Rain = 0
KSB1 020039Z 09003KT 32/11 A3014 RMK A01 T03170107  RH  028%=      5-min Rain = 0
KSB1 020040Z 08004KT 32/11 A3014 RMK A01 T03170107  RH  028%=      5-min Rain = 0
KSB1 020041Z 08005KT 32/11 A3014 RMK A01 T03170105  RH  027%=      5-min Rain = 0
KSB1 020042Z 08004KT 32/11 A3014 RMK A01 T03170106  RH  027%=      5-min Rain = 0
KSB1 020043Z 08004KT 32/11 A3014 RMK A01 T03170106  RH  027%=      5-min Rain = 0
KSB1 020044Z 07004KT 32/11 A3014 RMK A01 T03160105  RH  027%=      5-min Rain = 0
KSB1 020045Z 07003KT 32/11 A3015 RMK A01 T03150105  RH  027%=      5-min Rain = 0
KSB1 020046Z 07003KT 32/11 A3015 RMK A01 T03150106  RH  028%=      5-min Rain = 0
KSB1 020047Z 07003KT 31/11 A3015 RMK A01 T03140107  RH  028%=      5-min Rain = 0
KSB1 020048Z 07002KT 31/11 A3015 RMK A01 T03140107  RH  028%=      5-min Rain = 0
KSB1 020049Z 05002KT 31/11 A3015 RMK A01 T03140108  RH  028%=      5-min Rain = 0
KSB1 020050Z 05003KT 32/11 A3015 RMK A01 T03150106  RH  028%=      5-min Rain = 0
KSB1 020051Z 05003KT 31/10 A3015 RMK A01 T03140104  RH  027%=      5-min Rain = 0
KSB1 020052Z 06003KT 31/10 A3015 RMK A01 T03140104  RH  027%=      5-min Rain = 0
KSB1 020053Z 04003KT 31/11 A3015 RMK A01 T03140105  RH  028%=      5-min Rain = 0
KSB1 020054Z 04002KT 31/11 A3015 RMK A01 T03140105  RH  028%=      5-min Rain = 0
KSB1 020055Z 05002KT 31/10 A3015 RMK A01 T03130104  RH  028%=      5-min Rain = 0
KSB1 020056Z 05002KT 31/11 A3015 RMK A01 T03140105  RH  028%=      5-min Rain = 0
KSB1 020057Z 06002KT 31/10 A3015 RMK A01 T03130104  RH  028%=      5-min Rain = 0
KSB1 020058Z 06002KT 31/11 A3015 RMK A01 T03130106  RH  028%=      5-min Rain = 0
KSB1 020059Z 07001KT 31/11 A3015 RMK A01 T03130106  RH  028%=      5-min Rain = 0
KSB1 020100Z 05002KT 31/11 A3015 RMK A01 T03130106  RH  028%=      5-min Rain = 0
KSB1 020101Z 04003KT 31/11 A3015 RMK A01 T03130106  RH  028%=      5-min Rain = 0
KSB1 020102Z 05002KT 31/11 A3015 RMK A01 T03130106  RH  028%=      5-min Rain = 0
KSB1 020103Z 07003KT 31/11 A3015 RMK A01 T03130106  RH  028%=      5-min Rain = 0
KSB1 020104Z 05003KT 31/11 A3015 RMK A01 T03130106  RH  028%=      5-min Rain = 0
KSB1 020105Z 06003KT 31/11 A3015 RMK A01 T03130106  RH  028%=      5-min Rain = 0
KSB1 020106Z 07003KT 31/11 A3015 RMK A01 T03130105  RH  028%=      5-min Rain = 0
KSB1 020107Z 07003KT 31/11 A3015 RMK A01 T03130106  RH  028%=      5-min Rain = 0
KSB1 020108Z 07002KT 31/11 A3015 RMK A01 T03130107  RH  028%=      5-min Rain = 0
KSB1 020109Z 08002KT 31/11 A3015 RMK A01 T03120108  RH  028%=      5-min Rain = 0
KSB1 020110Z 08003KT 31/11 A3015 RMK A01 T03120108  RH  029%=      5-min Rain = 0
KSB1 020111Z 09003KT 31/11 A3015 RMK A01 T03120109  RH  029%=      5-min Rain = 0
KSB1 020112Z 08003KT 31/11 A3015 RMK A01 T03120109  RH  029%=      5-min Rain = 0
KSB1 020113Z 08003KT 31/11 A3015 RMK A01 T03120108  RH  029%=      5-min Rain = 0
KSB1 020114Z 08003KT 31/11 A3014 RMK A01 T03120109  RH  029%=      5-min Rain = 0
KSB1 020115Z 08004KT 31/11 A3015 RMK A01 T03120107  RH  028%=      5-min Rain = 0
KSB1 020116Z 08004KT 31/10 A3014 RMK A01 T03130104  RH  028%=      5-min Rain = 0
KSB1 020117Z 08003KT 31/11 A3015 RMK A01 T03140105  RH  028%=      5-min Rain = 0
KSB1 020118Z 09003KT 31/11 A3015 RMK A01 T03140105  RH  028%=      5-min Rain = 0
KSB1 020119Z 10002KT 32/11 A3015 RMK A01 T03150107  RH  028%=      5-min Rain = 0
KSB1 020120Z 10002KT 31/11 A3015 RMK A01 T03140108  RH  028%=      5-min Rain = 0
KSB1 020121Z 10001KT 31/11 A3015 RMK A01 T03140109  RH  028%=      5-min Rain = 0
KSB1 020122Z 11001KT 31/11 A3015 RMK A01 T03140109  RH  028%=      5-min Rain = 0
KSB1 020123Z 10001KT 31/11 A3015 RMK A01 T03130110  RH  029%=      5-min Rain = 0
KSB1 020124Z 10002KT 31/11 A3015 RMK A01 T03130110  RH  029%=      5-min Rain = 0
KSB1 020125Z 10003KT 31/11 A3015 RMK A01 T03130110  RH  029%=      5-min Rain = 0
KSB1 020126Z 09004KT 31/11 A3015 RMK A01 T03120110  RH  029%=      5-min Rain = 0
KSB1 020127Z 10003KT 31/11 A3015 RMK A01 T03120109  RH  029%=      5-min Rain = 0
KSB1 020128Z 11003KT 31/11 A3015 RMK A01 T03110109  RH  029%=      5-min Rain = 0
KSB1 020129Z 12003KT 31/11 A3015 RMK A01 T03110107  RH  028%=      5-min Rain = 0
KSB1 020130Z 12003KT 31/11 A3015 RMK A01 T03110108  RH  029%=      5-min Rain = 0
KSB1 020131Z 11002KT 31/11 A3015 RMK A01 T03110108  RH  029%=      5-min Rain = 0
KSB1 020132Z 11002KT 31/11 A3015 RMK A01 T03100108  RH  029%=      5-min Rain = 0
KSB1 020133Z 11002KT 31/11 A3015 RMK A01 T03100110  RH  029%=      5-min Rain = 0
KSB1 020134Z 12002KT 31/11 A3015 RMK A01 T03100109  RH  029%=      5-min Rain = 0
KSB1 020135Z 11001KT 31/11 A3015 RMK A01 T03100108  RH  029%=      5-min Rain = 0
KSB1 020136Z 11002KT 31/11 A3015 RMK A01 T03100109  RH  029%=      5-min Rain = 0
KSB1 020137Z 12002KT 31/11 A3015 RMK A01 T03100109  RH  029%=      5-min Rain = 0
KSB1 020138Z 12002KT 31/11 A3014 RMK A01 T03090110  RH  029%=      5-min Rain = 0
KSB1 020139Z 12002KT 31/11 A3014 RMK A01 T03090111  RH  030%=      5-min Rain = 0
KSB1 020140Z 12003KT 31/11 A3014 RMK A01 T03080112  RH  030%=      5-min Rain = 0
KSB1 020141Z 11003KT 31/11 A3014 RMK A01 T03070112  RH  030%=      5-min Rain = 0
KSB1 020142Z 11003KT 31/11 A3014 RMK A01 T03070113  RH  030%=      5-min Rain = 0
KSB1 020143Z 11004KT 31/11 A3014 RMK A01 T03060113  RH  030%=      5-min Rain = 0
KSB1 020144Z 11004KT 31/11 A3014 RMK A01 T03050113  RH  031%=      5-min Rain = 0
KSB1 020145Z 11004KT 30/11 A3014 RMK A01 T03040112  RH  030%=      5-min Rain = 0
KSB1 020146Z 11004KT 30/11 A3014 RMK A01 T03040112  RH  031%=      5-min Rain = 0
KSB1 020147Z 10004KT 30/11 A3014 RMK A01 T03030112  RH  031%=      5-min Rain = 0
KSB1 020148Z 10004KT 30/11 A3014 RMK A01 T03030111  RH  031%=      5-min Rain = 0
KSB1 020149Z 10003KT 30/11 A3014 RMK A01 T03030111  RH  031%=      5-min Rain = 0
KSB1 020150Z 10003KT 30/11 A3014 RMK A01 T03030112  RH  031%=      5-min Rain = 0
KSB1 020151Z 10003KT 30/11 A3014 RMK A01 T03020113  RH  031%=      5-min Rain = 0
KSB1 020152Z 09003KT 30/11 A3014 RMK A01 T03020113  RH  031%=      5-min Rain = 0
KSB1 020153Z 09003KT 30/11 A3014 RMK A01 T03010113  RH  031%=      5-min Rain = 0
KSB1 020154Z 09003KT 30/11 A3014 RMK A01 T03010113  RH  031%=      5-min Rain = 0
KSB1 020155Z 09003KT 30/11 A3014 RMK A01 T03010113  RH  031%=      5-min Rain = 0
KSB1 020156Z 08003KT 30/11 A3014 RMK A01 T03000114  RH  032%=      5-min Rain = 0
KSB1 020157Z 06003KT 30/11 A3014 RMK A01 T03000114  RH  032%=      5-min Rain = 0
KSB1 020158Z 04004KT 30/12 A3014 RMK A01 T02990115  RH  032%=      5-min Rain = 0
KSB1 020159Z 05005KT 30/12 A3015 RMK A01 T02970117  RH  033%=      5-min Rain = 0
KSB1 020200Z 05006KT 30/12 A3014 RMK A01 T02950115  RH  033%=      5-min Rain = 0
KSB1 020201Z 04005KT 30/11 A3014 RMK A01 T02950114  RH  033%=      5-min Rain = 0
KSB1 020202Z 05005KT 29/11 A3015 RMK A01 T02940114  RH  033%=      5-min Rain = 0
KSB1 020203Z 05006KT 29/11 A3015 RMK A01 T02930114  RH  033%=      5-min Rain = 0
KSB1 020204Z 05005KT 29/11 A3015 RMK A01 T02920114  RH  033%=      5-min Rain = 0
KSB1 020205Z 05005KT 29/11 A3014 RMK A01 T02910114  RH  033%=      5-min Rain = 0
KSB1 020206Z 05006KT 29/11 A3014 RMK A01 T02900114  RH  033%=      5-min Rain = 0
KSB1 020207Z 05006KT 29/11 A3014 RMK A01 T02900114  RH  034%=      5-min Rain = 0
KSB1 020208Z 04005KT 29/11 A3014 RMK A01 T02890114  RH  034%=      5-min Rain = 0
KSB1 020209Z 04005KT 29/11 A3014 RMK A01 T02890114  RH  034%=      5-min Rain = 0
KSB1 020210Z 05005KT 29/11 A3014 RMK A01 T02890114  RH  034%=      5-min Rain = 0
KSB1 020211Z 04005KT 29/11 A3014 RMK A01 T02880114  RH  034%=      5-min Rain = 0
KSB1 020212Z 04005KT 29/11 A3014 RMK A01 T02880114  RH  034%=      5-min Rain = 0
KSB1 020213Z 04005KT 29/11 A3014 RMK A01 T02880114  RH  034%=      5-min Rain = 0
KSB1 020214Z 04005KT 29/11 A3014 RMK A01 T02880114  RH  034%=      5-min Rain = 0
KSB1 020215Z 04005KT 29/12 A3014 RMK A01 T02880115  RH  034%=      5-min Rain = 0
KSB1 020216Z 04005KT 29/11 A3014 RMK A01 T02880114  RH  034%=      5-min Rain = 0
KSB1 020217Z 04006KT 29/11 A3014 RMK A01 T02880114  RH  034%=      5-min Rain = 0
KSB1 020218Z 04005KT 29/11 A3014 RMK A01 T02880114  RH  034%=      5-min Rain = 0
KSB1 020219Z 04004KT 29/12 A3014 RMK A01 T02880115  RH  034%=      5-min Rain = 0
KSB1 020220Z 04004KT 29/12 A3014 RMK A01 T02880115  RH  034%=      5-min Rain = 0
KSB1 020221Z 03004KT 29/12 A3014 RMK A01 T02880115  RH  034%=      5-min Rain = 0
KSB1 020222Z 03005KT 29/12 A3014 RMK A01 T02880116  RH  034%=      5-min Rain = 0
KSB1 020223Z 03006KT 29/12 A3014 RMK A01 T02880115  RH  034%=      5-min Rain = 0
KSB1 020224Z 03005KT 29/12 A3014 RMK A01 T02880115  RH  034%=      5-min Rain = 0
KSB1 020225Z 02005KT 29/12 A3014 RMK A01 T02880116  RH  034%=      5-min Rain = 0
KSB1 020226Z 02005KT 29/12 A3014 RMK A01 T02880116  RH  035%=      5-min Rain = 0
KSB1 020227Z 02005KT 29/12 A3014 RMK A01 T02870116  RH  035%=      5-min Rain = 0
KSB1 020228Z 02004KT 29/12 A3014 RMK A01 T02860117  RH  035%=      5-min Rain = 0
KSB1 020229Z 02004KT 29/12 A3014 RMK A01 T02850117  RH  035%=      5-min Rain = 0
KSB1 020230Z 02004KT 29/12 A3014 RMK A01 T02850117  RH  035%=      5-min Rain = 0
KSB1 020231Z 02004KT 28/12 A3014 RMK A01 T02840117  RH  035%=      5-min Rain = 0
KSB1 020232Z 02005KT 28/12 A3014 RMK A01 T02840118  RH  036%=      5-min Rain = 0
KSB1 020233Z 02005KT 28/12 A3014 RMK A01 T02830117  RH  036%=      5-min Rain = 0
KSB1 020234Z 02005KT 28/12 A3015 RMK A01 T02820118  RH  036%=      5-min Rain = 0
KSB1 020235Z 02005KT 28/12 A3015 RMK A01 T02820117  RH  036%=      5-min Rain = 0
KSB1 020236Z 02005KT 28/12 A3015 RMK A01 T02820117  RH  036%=      5-min Rain = 0
KSB1 020237Z 02006KT 28/12 A3015 RMK A01 T02810117  RH  036%=      5-min Rain = 0
KSB1 020238Z 02006KT 28/12 A3015 RMK A01 T02810118  RH  036%=      5-min Rain = 0
KSB1 020239Z 01006KT 28/12 A3015 RMK A01 T02810117  RH  036%=      5-min Rain = 0
KSB1 020240Z 01006KT 28/12 A3015 RMK A01 T02810117  RH  036%=      5-min Rain = 0
KSB1 020241Z 01006KT 28/12 A3015 RMK A01 T02800118  RH  036%=      5-min Rain = 0
KSB1 020242Z 01007KT 28/12 A3015 RMK A01 T02800117  RH  036%=      5-min Rain = 0
KSB1 020243Z 02007KT 28/12 A3015 RMK A01 T02790117  RH  036%=      5-min Rain = 0
KSB1 020244Z 02007KT 28/12 A3015 RMK A01 T02790117  RH  036%=      5-min Rain = 0
KSB1 020245Z 02007KT 28/12 A3015 RMK A01 T02790117  RH  036%=      5-min Rain = 0
KSB1 020246Z 02007KT 28/12 A3015 RMK A01 T02790117  RH  036%=      5-min Rain = 0
KSB1 020247Z 01007KT 28/12 A3015 RMK A01 T02790116  RH  036%=      5-min Rain = 0
KSB1 020248Z 02007KT 28/12 A3015 RMK A01 T02800116  RH  036%=      5-min Rain = 0
KSB1 020249Z 02007KT 28/12 A3015 RMK A01 T02800116  RH  036%=      5-min Rain = 0
KSB1 020250Z 02006KT 28/12 A3015 RMK A01 T02800115  RH  036%=      5-min Rain = 0
KSB1 020251Z 02006KT 28/12 A3015 RMK A01 T02800115  RH  036%=      5-min Rain = 0
KSB1 020252Z 02007KT 28/12 A3015 RMK A01 T02800115  RH  036%=      5-min Rain = 0
KSB1 020253Z 02006KT 28/11 A3015 RMK A01 T02800114  RH  036%=      5-min Rain = 0
KSB1 020254Z 02007KT 28/11 A3015 RMK A01 T02800114  RH  036%=      5-min Rain = 0
KSB1 020255Z 02007KT 28/11 A3015 RMK A01 T02810114  RH  035%=      5-min Rain = 0
KSB1 020256Z 03007KT 28/11 A3015 RMK A01 T02810114  RH  035%=      5-min Rain = 0
KSB1 020257Z 03006KT 28/11 A3015 RMK A01 T02810113  RH  035%=      5-min Rain = 0
KSB1 020258Z 04006KT 28/11 A3015 RMK A01 T02810114  RH  035%=      5-min Rain = 0
KSB1 020259Z 04005KT 28/11 A3015 RMK A01 T02800113  RH  035%=      5-min Rain = 0
KSB1 020300Z 04005KT 28/11 A3015 RMK A01 T02800113  RH  035%=      5-min Rain = 0
KSB1 020301Z 04005KT 28/11 A3015 RMK A01 T02800113  RH  036%=      5-min Rain = 0
KSB1 020302Z 04005KT 28/11 A3015 RMK A01 T02790113  RH  036%=      5-min Rain = 0
KSB1 020303Z 04005KT 28/11 A3015 RMK A01 T02780113  RH  036%=      5-min Rain = 0
KSB1 020304Z 04005KT 28/11 A3015 RMK A01 T02770113  RH  036%=      5-min Rain = 0
KSB1 020305Z 05005KT 28/11 A3015 RMK A01 T02770114  RH  036%=      5-min Rain = 0
KSB1 020306Z 05004KT 28/11 A3015 RMK A01 T02760113  RH  036%=      5-min Rain = 0
KSB1 020307Z 04005KT 28/11 A3016 RMK A01 T02750113  RH  036%=      5-min Rain = 0
KSB1 020308Z 04005KT 28/11 A3016 RMK A01 T02750114  RH  036%=      5-min Rain = 0
KSB1 020309Z 04005KT 28/11 A3016 RMK A01 T02750114  RH  036%=      5-min Rain = 0
KSB1 020310Z 04004KT 28/11 A3016 RMK A01 T02750113  RH  037%=      5-min Rain = 0
KSB1 020311Z 04005KT 28/11 A3016 RMK A01 T02750113  RH  037%=      5-min Rain = 0
KSB1 020312Z 04004KT 28/11 A3016 RMK A01 T02750114  RH  037%=      5-min Rain = 0
KSB1 020313Z 04005KT 28/11 A3016 RMK A01 T02750114  RH  037%=      5-min Rain = 0
KSB1 020314Z 03005KT 28/11 A3016 RMK A01 T02750114  RH  037%=      5-min Rain = 0
KSB1 020315Z 03005KT 28/11 A3016 RMK A01 T02750114  RH  037%=      5-min Rain = 0
KSB1 020316Z 03004KT 28/11 A3016 RMK A01 T02750114  RH  037%=      5-min Rain = 0
KSB1 020317Z 03004KT 28/11 A3017 RMK A01 T02750114  RH  037%=      5-min Rain = 0
KSB1 020318Z 04004KT 27/11 A3017 RMK A01 T02740114  RH  037%=      5-min Rain = 0
KSB1 020319Z 03004KT 27/11 A3017 RMK A01 T02740113  RH  037%=      5-min Rain = 0
KSB1 020320Z 03004KT 27/11 A3017 RMK A01 T02730113  RH  037%=      5-min Rain = 0
KSB1 020321Z 03005KT 27/11 A3017 RMK A01 T02730113  RH  037%=      5-min Rain = 0
KSB1 020322Z 04004KT 27/11 A3017 RMK A01 T02730113  RH  037%=      5-min Rain = 0
KSB1 020323Z 02005KT 27/11 A3017 RMK A01 T02730113  RH  037%=      5-min Rain = 0
KSB1 020324Z 02005KT 27/11 A3017 RMK A01 T02730113  RH  037%=      5-min Rain = 0
KSB1 020325Z 02005KT 27/11 A3017 RMK A01 T02720113  RH  037%=      5-min Rain = 0
KSB1 020326Z 02005KT 27/11 A3017 RMK A01 T02710113  RH  037%=      5-min Rain = 0
KSB1 020327Z 02004KT 27/11 A3017 RMK A01 T02710113  RH  037%=      5-min Rain = 0
KSB1 020328Z 00004KT 27/11 A3017 RMK A01 T02700113  RH  037%=      5-min Rain = 0
KSB1 020329Z 02004KT 27/11 A3017 RMK A01 T02690113  RH  038%=      5-min Rain = 0
KSB1 020330Z 02004KT 27/11 A3017 RMK A01 T02690113  RH  038%=      5-min Rain = 0
KSB1 020331Z 01004KT 27/11 A3018 RMK A01 T02690113  RH  038%=      5-min Rain = 0
KSB1 020332Z 01005KT 27/11 A3018 RMK A01 T02690113  RH  038%=      5-min Rain = 0
KSB1 020333Z 01005KT 27/11 A3018 RMK A01 T02690112  RH  038%=      5-min Rain = 0
KSB1 020334Z 00005KT 27/11 A3018 RMK A01 T02690112  RH  038%=      5-min Rain = 0
KSB1 020335Z 01005KT 27/11 A3018 RMK A01 T02690113  RH  038%=      5-min Rain = 0
KSB1 020336Z 00005KT 27/11 A3018 RMK A01 T02690112  RH  037%=      5-min Rain = 0
KSB1 020337Z 01005KT 27/11 A3018 RMK A01 T02700113  RH  038%=      5-min Rain = 0
KSB1 020338Z 00005KT 27/11 A3018 RMK A01 T02700113  RH  038%=      5-min Rain = 0
KSB1 020339Z 00005KT 27/11 A3018 RMK A01 T02700113  RH  038%=      5-min Rain = 0
KSB1 020340Z 01005KT 27/11 A3018 RMK A01 T02690112  RH  037%=      5-min Rain = 0
KSB1 020341Z 01004KT 27/11 A3018 RMK A01 T02700112  RH  037%=      5-min Rain = 0
KSB1 020342Z 01005KT 27/11 A3018 RMK A01 T02700112  RH  037%=      5-min Rain = 0
KSB1 020343Z 01005KT 27/11 A3018 RMK A01 T02700112  RH  037%=      5-min Rain = 0
KSB1 020344Z 02004KT 27/11 A3018 RMK A01 T02700112  RH  037%=      5-min Rain = 0
KSB1 020345Z 02005KT 27/11 A3018 RMK A01 T02700113  RH  037%=      5-min Rain = 0
KSB1 020346Z 02005KT 27/11 A3018 RMK A01 T02700113  RH  037%=      5-min Rain = 0
KSB1 020347Z 02005KT 27/11 A3018 RMK A01 T02700113  RH  038%=      5-min Rain = 0
KSB1 020348Z 02004KT 27/11 A3018 RMK A01 T02690113  RH  038%=      5-min Rain = 0
KSB1 020349Z 02005KT 27/11 A3018 RMK A01 T02690113  RH  038%=      5-min Rain = 0
KSB1 020350Z 02004KT 27/11 A3018 RMK A01 T02690113  RH  038%=      5-min Rain = 0
KSB1 020351Z 02005KT 27/11 A3018 RMK A01 T02680113  RH  038%=      5-min Rain = 0
KSB1 020352Z 02004KT 27/11 A3018 RMK A01 T02680113  RH  038%=      5-min Rain = 0
KSB1 020353Z 02004KT 27/11 A3018 RMK A01 T02680113  RH  038%=      5-min Rain = 0
KSB1 020354Z 02005KT 27/11 A3018 RMK A01 T02670113  RH  038%=      5-min Rain = 0
KSB1 020355Z 02005KT 27/11 A3018 RMK A01 T02670113  RH  038%=      5-min Rain = 0
KSB1 020356Z 02005KT 27/11 A3018 RMK A01 T02670112  RH  038%=      5-min Rain = 0
KSB1 020357Z 02004KT 27/11 A3018 RMK A01 T02670112  RH  038%=      5-min Rain = 0
KSB1 020358Z 02005KT 27/11 A3018 RMK A01 T02680112  RH  038%=      5-min Rain = 0
KSB1 020359Z 01005KT 27/11 A3018 RMK A01 T02680112  RH  038%=      5-min Rain = 0
KSB1 020400Z 02005KT 27/11 A3018 RMK A01 T02690112  RH  037%=      5-min Rain = 0
KSB1 020401Z 01004KT 27/11 A3018 RMK A01 T02690112  RH  037%=      5-min Rain = 0
KSB1 020402Z 01004KT 27/11 A3018 RMK A01 T02690112  RH  037%=      5-min Rain = 0
KSB1 020403Z 01004KT 27/11 A3018 RMK A01 T02690112  RH  038%=      5-min Rain = 0
KSB1 020404Z 01004KT 27/11 A3018 RMK A01 T02680112  RH  038%=      5-min Rain = 0
KSB1 020405Z 01004KT 27/11 A3018 RMK A01 T02680112  RH  038%=      5-min Rain = 0
KSB1 020406Z 01005KT 27/11 A3018 RMK A01 T02670112  RH  038%=      5-min Rain = 0
KSB1 020407Z 01005KT 27/11 A3018 RMK A01 T02660112  RH  038%=      5-min Rain = 0
KSB1 020408Z 01005KT 27/11 A3018 RMK A01 T02660112  RH  038%=      5-min Rain = 0
KSB1 020409Z 01005KT 27/11 A3018 RMK A01 T02660112  RH  038%=      5-min Rain = 0
KSB1 020410Z 02004KT 27/11 A3018 RMK A01 T02660112  RH  038%=      5-min Rain = 0
KSB1 020411Z 01004KT 27/11 A3018 RMK A01 T02660112  RH  038%=      5-min Rain = 0
KSB1 020412Z 01004KT 27/11 A3018 RMK A01 T02660111  RH  038%=      5-min Rain = 0
KSB1 020413Z 01004KT 27/11 A3018 RMK A01 T02660111  RH  038%=      5-min Rain = 0
KSB1 020414Z 01004KT 27/11 A3018 RMK A01 T02660111  RH  038%=      5-min Rain = 0
KSB1 020415Z 01005KT 27/11 A3018 RMK A01 T02660111  RH  038%=      5-min Rain = 0
KSB1 020416Z 01005KT 27/11 A3018 RMK A01 T02660110  RH  038%=      5-min Rain = 0
KSB1 020417Z 02004KT 27/11 A3018 RMK A01 T02660110  RH  038%=      5-min Rain = 0
KSB1 020418Z 01005KT 27/11 A3018 RMK A01 T02660110  RH  038%=      5-min Rain = 0
KSB1 020419Z 01005KT 27/11 A3018 RMK A01 T02660109  RH  038%=      5-min Rain = 0
KSB1 020420Z 02005KT 27/11 A3018 RMK A01 T02660109  RH  038%=      5-min Rain = 0
KSB1 020421Z 01005KT 27/11 A3018 RMK A01 T02660110  RH  038%=      5-min Rain = 0
KSB1 020422Z 01004KT 27/11 A3018 RMK A01 T02660110  RH  038%=      5-min Rain = 0
KSB1 020423Z 01004KT 27/11 A3018 RMK A01 T02650109  RH  038%=      5-min Rain = 0
KSB1 020424Z 01005KT 27/11 A3018 RMK A01 T02650108  RH  037%=      5-min Rain = 0
KSB1 020425Z 00005KT 27/11 A3018 RMK A01 T02650108  RH  037%=      5-min Rain = 0
KSB1 020426Z 00005KT 27/11 A3018 RMK A01 T02650109  RH  037%=      5-min Rain = 0
KSB1 020427Z 00005KT 27/11 A3018 RMK A01 T02650107  RH  037%=      5-min Rain = 0
KSB1 020428Z 00005KT 27/11 A3018 RMK A01 T02650107  RH  037%=      5-min Rain = 0
KSB1 020429Z 00005KT 27/11 A3018 RMK A01 T02650106  RH  037%=      5-min Rain = 0
KSB1 020430Z 00005KT 27/11 A3019 RMK A01 T02650106  RH  037%=      5-min Rain = 0
KSB1 020431Z 00005KT 27/11 A3019 RMK A01 T02650105  RH  037%=      5-min Rain = 0
KSB1 020432Z 00005KT 27/11 A3019 RMK A01 T02660105  RH  036%=      5-min Rain = 0
KSB1 020433Z 00005KT 27/11 A3019 RMK A01 T02660105  RH  036%=      5-min Rain = 0
KSB1 020434Z 01005KT 27/10 A3019 RMK A01 T02660104  RH  036%=      5-min Rain = 0
KSB1 020435Z 00005KT 27/10 A3019 RMK A01 T02670104  RH  036%=      5-min Rain = 0
KSB1 020436Z 36005KT 27/10 A3019 RMK A01 T02670104  RH  036%=      5-min Rain = 0
KSB1 020437Z 36006KT 27/11 A3019 RMK A01 T02670105  RH  036%=      5-min Rain = 0
KSB1 020438Z 36005KT 27/11 A3019 RMK A01 T02660105  RH  036%=      5-min Rain = 0
KSB1 020439Z 36006KT 27/11 A3019 RMK A01 T02660105  RH  036%=      5-min Rain = 0
KSB1 020440Z 00006KT 27/11 A3019 RMK A01 T02660105  RH  036%=      5-min Rain = 0
KSB1 020441Z 36005KT 27/10 A3019 RMK A01 T02660104  RH  036%=      5-min Rain = 0
KSB1 020442Z 36006KT 27/10 A3019 RMK A01 T02660103  RH  036%=      5-min Rain = 0
KSB1 020443Z 36005KT 27/10 A3019 RMK A01 T02670103  RH  036%=      5-min Rain = 0
KSB1 020444Z 35005KT 27/10 A3019 RMK A01 T02680103  RH  036%=      5-min Rain = 0
KSB1 020445Z 35005KT 27/10 A3019 RMK A01 T02680103  RH  035%=      5-min Rain = 0
KSB1 020446Z 35005KT 27/10 A3019 RMK A01 T02680102  RH  035%=      5-min Rain = 0
KSB1 020447Z 35005KT 27/10 A3019 RMK A01 T02690102  RH  035%=      5-min Rain = 0
KSB1 020448Z 35005KT 27/10 A3019 RMK A01 T02690102  RH  035%=      5-min Rain = 0
KSB1 020449Z 35005KT 27/10 A3019 RMK A01 T02690101  RH  035%=      5-min Rain = 0
KSB1 020450Z 35005KT 27/10 A302 RMK A01 T02700100  RH  035%=      5-min Rain = 0
KSB1 020451Z 35005KT 27/10 A302 RMK A01 T02710101  RH  034%=      5-min Rain = 0
KSB1 020452Z 35005KT 27/10 A302 RMK A01 T02710102  RH  035%=      5-min Rain = 0
KSB1 020453Z 35005KT 27/10 A302 RMK A01 T02710102  RH  035%=      5-min Rain = 0
KSB1 020454Z 34005KT 27/10 A302 RMK A01 T02710101  RH  034%=      5-min Rain = 0
KSB1 020455Z 34006KT 27/10 A302 RMK A01 T02720100  RH  034%=      5-min Rain = 0
KSB1 020456Z 34005KT 27/10 A302 RMK A01 T02730100  RH  034%=      5-min Rain = 0
KSB1 020457Z 34006KT 27/10 A302 RMK A01 T02740100  RH  034%=      5-min Rain = 0
KSB1 020458Z 35005KT 27/10 A302 RMK A01 T02740101  RH  034%=      5-min Rain = 0
KSB1 020459Z 34005KT 27/10 A302 RMK A01 T02730102  RH  034%=      5-min Rain = 0

Page generated in 0.1262 seconds.